Home > Products > Valid Products > MTR

000
SAUS41 KLWX 061700
MTRRYT
METAR KRYT 061653Z AUTO 00000KT 10SM CLR M07/M17 A3049 RMK AO2
SLP356 T10721167 $





000
SAUS41 KLWX 061659
MTRNAK
METAR KNAK 061654Z AUTO 02005KT 10SM CLR M06/M14 A3058 RMK AO2
SLP356 T10611144 $





000
SAUS41 KLWX 061659 COR
MTRDMH
METAR KDMH 061654Z AUTO M06/M16 A3060 RMK AO1 SLP362 T10561156





000
SAUS41 KLWX 061659
MTRRSP
METAR KRSP 061654Z AUTO 10SM CLR M09/M16 RMK AO2 SLPNO T10891156 $





000
SAUS41 KLWX 061600
MTRRYT
METAR KRYT 061553Z AUTO 00000KT 10SM CLR M08/M17 A3051 RMK AO2
SLP361 T10831172 $





000
SAUS41 KLWX 061559
MTRRSP
METAR KRSP 061554Z AUTO 10SM CLR M10/M17 RMK AO2 SLPNO T11001167 $





000
SAUS41 KLWX 061559
MTRNAK
METAR KNAK 061554Z AUTO A3060 RMK AO2 SLP365 PWINO FZRANO $





000
SAUS41 KLWX 061559 COR
MTRDMH
METAR KDMH 061554Z AUTO M07/M16 A3060 RMK AO1 SLP360 T10721156





000
SAUS41 KLWX 061500
MTRRYT
METAR KRYT 061453Z AUTO 07004KT 10SM CLR M10/M18 A3052 RMK AO2
SLP365 T11001183 53007 $





000
SAUS41 KLWX 061459
MTRNAK
METAR KNAK 061454Z AUTO A3061 RMK AO2 SLP369 51015 PWINO FZRANO $





000
SAUS41 KLWX 061459 COR
MTRDMH
METAR KDMH 061454Z AUTO M08/M16 A3060 RMK AO1 SLP363 T10781161 51009





000
SAUS41 KLWX 061459
MTRRSP
METAR KRSP 061454Z AUTO 10SM CLR M12/M18 RMK AO2 SLPNO T11171178 $





000
SAUS41 KLWX 061400
MTRRYT
METAR KRYT 061353Z AUTO 00000KT 10SM CLR M12/M17 A3052 RMK AO2
SLP364 T11171172 $





000
SAUS41 KLWX 061359
MTRRSP
METAR KRSP 061354Z AUTO 10SM CLR M13/M18 RMK AO2 SLPNO T11281183 $





000
SAUS41 KLWX 061359
MTRNAK
METAR KNAK 061354Z AUTO 01011KT 10SM CLR M08/M15 A3061 RMK AO2
SLP368 T10781150





000
SAUS41 KLWX 061359 COR
MTRDMH
METAR KDMH 061354Z AUTO M08/M17 A3057 RMK AO1 PRESFR SLP351
T10831172





000
SAUS41 KLWX 061300
MTRRYT
METAR KRYT 061253Z AUTO 00000KT 10SM CLR M15/M19 A3049 RMK AO2
SLP358 T11501194 $





000
SAUS41 KLWX 061300
MTRRYT
METAR KRYT 061253Z AUTO 00000KT 10SM CLR M15/M19 A3049 RMK AO2
SLP358 T11501194 $





000
SAUS41 KLWX 061259
MTRRSP
METAR KRSP 061254Z AUTO 10SM CLR M16/M20 RMK AO2 SLPNO T11561200 $





000
SAUS41 KLWX 061259 COR
MTRDMH
METAR KDMH 061254Z AUTO M09/M17 A3063 RMK AO1 PRESRR SLP373
T10941167





000
SAUS41 KLWX 061259 COR
MTRDMH
METAR KDMH 061254Z AUTO M09/M17 A3063 RMK AO1 PRESRR SLP373
T10941167





000
SAUS41 KLWX 061259
MTRNAK
METAR KNAK 061254Z AUTO 35009KT 10SM CLR M08/M15 A3060 RMK AO2
SLP363 T10831150





000
SAUS41 KLWX 061259
MTRRSP
METAR KRSP 061254Z AUTO 10SM CLR M16/M20 RMK AO2 SLPNO T11561200 $





000
SAUS41 KLWX 061259
MTRNAK
METAR KNAK 061254Z AUTO 35009KT 10SM CLR M08/M15 A3060 RMK AO2
SLP363 T10831150





000
SAUS41 KLWX 061200
MTRRYT
METAR KRYT 061153Z AUTO 00000KT 10SM CLR M16/M20 A3050 RMK AO2
PRESRR SLP361 70052 T11611200 11111 21161 50027 $





000
SAUS41 KLWX 061200
MTRRYT
METAR KRYT 061153Z AUTO 00000KT 10SM CLR M16/M20 A3050 RMK AO2
PRESRR SLP361 70052 T11611200 11111 21161 50027 $





000
SAUS41 KLWX 061159 COR
MTRDMH
METAR KDMH 061154Z AUTO M10/M17 A3058 RMK AO1 SLP354 70047 T11001167
11061 21100 51025





000
SAUS41 KLWX 061159
MTRNAK
METAR KNAK 061154Z AUTO 33008KT 10SM CLR M09/M14 A3057 RMK AO2
SLP354 70044 T10891144 11056 21089 51026





000
SAUS41 KLWX 061159
MTRRSP
METAR KRSP 061154Z AUTO 10SM CLR M17/M21 RMK AO2 SLPNO 70074
T11721211 11139 21178 $





000
SAUS41 KLWX 061159 COR
MTRDMH
METAR KDMH 061154Z AUTO M10/M17 A3058 RMK AO1 SLP354 70047 T11001167
11061 21100 51025





000
SAUS41 KLWX 061159
MTRRSP
METAR KRSP 061154Z AUTO 10SM CLR M17/M21 RMK AO2 SLPNO 70074
T11721211 11139 21178 $





000
SAUS41 KLWX 061159
MTRNAK
METAR KNAK 061154Z AUTO 33008KT 10SM CLR M09/M14 A3057 RMK AO2
SLP354 70044 T10891144 11056 21089 51026





000
SAUS41 KLWX 061100
MTRRYT
METAR KRYT 061053Z AUTO 00000KT 10SM CLR M14/M20 A3051 RMK AO2
SLP362 T11441200 $





000
SAUS41 KLWX 061100
MTRRYT
METAR KRYT 061053Z AUTO 00000KT 10SM CLR M14/M20 A3051 RMK AO2
SLP362 T11441200 $





000
SAUS41 KLWX 061059
MTRRSP
METAR KRSP 061054Z AUTO 10SM CLR M17/M21 RMK AO2 SLPNO T11671211 $





000
SAUS41 KLWX 061059
MTRNAK
METAR KNAK 061054Z AUTO 33008KT 10SM CLR M09/M14 A3056 RMK AO2
SLP350 T10891139





000
SAUS41 KLWX 061059 COR
MTRDMH
METAR KDMH 061054Z AUTO M09/M17 A3056 RMK AO1 SLP349 T10941172





000
SAUS41 KLWX 061059
MTRRSP
METAR KRSP 061054Z AUTO 10SM CLR M17/M21 RMK AO2 SLPNO T11671211 $





000
SAUS41 KLWX 061059
MTRNAK
METAR KNAK 061054Z AUTO 33008KT 10SM CLR M09/M14 A3056 RMK AO2
SLP350 T10891139





000
SAUS41 KLWX 061059 COR
MTRDMH
METAR KDMH 061054Z AUTO M09/M17 A3056 RMK AO1 SLP349 T10941172





000
SAUS41 KLWX 061000
MTRRYT
METAR KRYT 060953Z AUTO 00000KT 10SM CLR M14/M20 A3045 RMK AO2
SLP342 T11441200 $





000
SAUS41 KLWX 060959
MTRNAK
METAR KNAK 060954Z AUTO 35007KT 10SM CLR M08/M14 A3053 RMK AO2
SLP338 T10831139





000
SAUS41 KLWX 060959
MTRRSP
METAR KRSP 060954Z AUTO 10SM CLR M16/M21 RMK AO2 SLPNO T11611206 $





000
SAUS41 KLWX 060959 COR
MTRDMH
METAR KDMH 060954Z AUTO M09/M17 A3052 RMK AO1 SLP336 T10891167





000
SAUS41 KLWX 060900
MTRRYT
METAR KRYT 060853Z AUTO 33004KT 10SM CLR M13/M19 A3042 RMK AO2
SLP330 T11281194 50007 $





000
SAUS41 KLWX 060859 COR
MTRDMH
METAR KDMH 060854Z AUTO M08/M16 A3050 RMK AO1 SLP329 T10831161 51040





000
SAUS41 KLWX 060859
MTRNAK
METAR KNAK 060854Z AUTO 33010KT 10SM CLR M07/M13 A3049 RMK AO2
SLP327 T10721133 51016





000
SAUS41 KLWX 060859
MTRRSP
METAR KRSP 060854Z AUTO 10SM CLR M16/M20 RMK AO2 SLPNO T11561200 $





000
SAUS41 KLWX 060800
MTRRYT
METAR KRYT 060753Z AUTO 00000KT 10SM CLR M13/M18 A3043 RMK AO2
SLP335 T11331183 $





000
SAUS41 KLWX 060759 COR
MTRDMH
METAR KDMH 060754Z AUTO M08/M16 A3050 RMK AO1 SLP327 T10781156





000
SAUS41 KLWX 060759
MTRNAK
METAR KNAK 060754Z AUTO 33012KT 10SM CLR M07/M13 A3048 RMK AO2
SLP322 T10671128





000
SAUS41 KLWX 060759
MTRRSP
METAR KRSP 060754Z AUTO 10SM CLR M16/M20 RMK AO2 SLPNO T11561200 $





000
SAUS41 KLWX 060700
MTRRYT
METAR KRYT 060653Z AUTO 00000KT 10SM CLR M12/M19 A3041 RMK AO2
SLP325 T11221189 $





000
SAUS41 KLWX 060659
MTRNAK
METAR KNAK 060654Z AUTO 34010KT 10SM CLR M06/M12 A3047 RMK AO2
SLP319 T10611122





000
SAUS41 KLWX 060659
MTRRSP
METAR KRSP 060654Z AUTO 10SM CLR M14/M20 RMK AO2 SLPNO T11391200 $





000
SAUS41 KLWX 060659 COR
MTRDMH
METAR KDMH 060654Z AUTO M07/M15 A3051 RMK AO1 SLP330 T10721150





000
SAUS41 KLWX 060600
MTRRYT
METAR KRYT 060553Z AUTO VRB03KT 10SM CLR M11/M19 A3040 RMK AO2
SLP320 T11111189 11067 21111 53002 $





000
SAUS41 KLWX 060559
MTRNAK
METAR KNAK 060554Z AUTO 33010KT 10SM CLR M06/M11 A3045 RMK AO2
SLP312 60000 T10561111 11039 21056 51015





000
SAUS41 KLWX 060559
MTRRSP
METAR KRSP 060554Z AUTO 10SM CLR M14/M19 RMK AO2 SLPNO 60000
T11441189 11094 21144 $





000
SAUS41 KLWX 060559 COR
MTRDMH
METAR KDMH 060554Z AUTO M06/M14 A3038 RMK AO1 SLP288 T10611144 11044
21061 50013





000
SAUS41 KLWX 060500
MTRRYT
METAR KRYT 060453Z AUTO VRB03KT 10SM CLR M11/M17 A3039 RMK AO2
PRESFR SLP318 T11061172 400281106 $





000
SAUS41 KLWX 060500
MTRRYT
METAR KRYT 060453Z AUTO VRB03KT 10SM CLR M11/M17 A3039 RMK AO2
PRESFR SLP318 T11061172 400281106 $





000
SAUS41 KLWX 060459
MTRRSP
METAR KRSP 060454Z AUTO 10SM CLR M13/M18 RMK AO2 SLPNO T11331178
400061133 $





000
SAUS41 KLWX 060459 COR
MTRDMH
METAR KDMH 060454Z AUTO M06/M14 A3048 RMK AO1 SLP322 T10561139
400611056





000
SAUS41 KLWX 060459
MTRNAK
METAR KNAK 060454Z AUTO 34010KT 10SM CLR M04/M11 A3044 RMK AO2
SLP308 T10441111 400501044





000
SAUS41 KLWX 060459 COR
MTRDMH
METAR KDMH 060454Z AUTO M06/M14 A3048 RMK AO1 SLP322 T10561139
400611056





000
SAUS41 KLWX 060459
MTRRSP
METAR KRSP 060454Z AUTO 10SM CLR M13/M18 RMK AO2 SLPNO T11331178
400061133 $





000
SAUS41 KLWX 060459
MTRNAK
METAR KNAK 060454Z AUTO 34010KT 10SM CLR M04/M11 A3044 RMK AO2
SLP308 T10441111 400501044





000
SAUS41 KLWX 060400
MTRRYT
METAR KRYT 060353Z AUTO 00000KT 10SM CLR M09/M18 A3038 RMK AO2
SLP313 T10891178 $





000
SAUS41 KLWX 060400
MTRRYT
METAR KRYT 060353Z AUTO 00000KT 10SM CLR M09/M18 A3038 RMK AO2
SLP313 T10891178 $





000
SAUS41 KLWX 060359
MTRNAK
METAR KNAK 060354Z AUTO 34010KT 10SM OVC110 M04/M09 A3043 RMK AO2
SLP307 T10441089





000
SAUS41 KLWX 060359 COR
MTRDMH
METAR KDMH 060354Z AUTO M04/M12 A3047 RMK AO1 PRESRR SLP316
T10441122





000
SAUS41 KLWX 060359
MTRRSP
METAR KRSP 060354Z AUTO 10SM CLR M13/M17 RMK AO2 SLPNO T11281172 $





000
SAUS41 KLWX 060359
MTRNAK
METAR KNAK 060354Z AUTO 34010KT 10SM OVC110 M04/M09 A3043 RMK AO2
SLP307 T10441089





000
SAUS41 KLWX 060359 COR
MTRDMH
METAR KDMH 060354Z AUTO M04/M12 A3047 RMK AO1 PRESRR SLP316
T10441122





000
SAUS41 KLWX 060359
MTRRSP
METAR KRSP 060354Z AUTO 10SM CLR M13/M17 RMK AO2 SLPNO T11281172 $





000
SAUS41 KLWX 060300
MTRRYT
METAR KRYT 060253Z AUTO VRB05KT 10SM CLR M08/M17 A3039 RMK AO2
PRESRR SLP314 T10781167 53044 $





000
SAUS41 KLWX 060300
MTRRYT
METAR KRYT 060253Z AUTO VRB05KT 10SM CLR M08/M17 A3039 RMK AO2
PRESRR SLP314 T10781167 53044 $





000
SAUS41 KLWX 060259
MTRNAK
METAR KNAK 060254Z AUTO 33009KT 10SM OVC110 M04/M08 A3040 RMK AO2
SLP297 60000 T10441078 51030





000
SAUS41 KLWX 060259
MTRRSP
METAR KRSP 060254Z AUTO 10SM FEW120 M11/M16 RMK AO2 SLPNO 60000
T11111156 $





000
SAUS41 KLWX 060259 COR
MTRDMH
METAR KDMH 060254Z AUTO M04/M09 A3035 RMK AO1 SLP276 T10441094 50034





000
SAUS41 KLWX 060259
MTRNAK
METAR KNAK 060254Z AUTO 33009KT 10SM OVC110 M04/M08 A3040 RMK AO2
SLP297 60000 T10441078 51030





000
SAUS41 KLWX 060259 COR
MTRDMH
METAR KDMH 060254Z AUTO M04/M09 A3035 RMK AO1 SLP276 T10441094 50034





000
SAUS41 KLWX 060259
MTRRSP
METAR KRSP 060254Z AUTO 10SM FEW120 M11/M16 RMK AO2 SLPNO 60000
T11111156 $





000
SAUS41 KLWX 060200
MTRRYT
METAR KRYT 060153Z AUTO VRB04KT 10SM SCT120 M07/M14 A3032 RMK AO2
SLP290 T10671144 $





000
SAUS41 KLWX 060200
MTRRYT
METAR KRYT 060153Z AUTO VRB04KT 10SM SCT120 M07/M14 A3032 RMK AO2
SLP290 T10671144 $





000
SAUS41 KLWX 060159
MTRRSP
METAR KRSP 060154Z AUTO 10SM OVC110 M10/M14 RMK AO2 SLPNO T11001139
$





000
SAUS41 KLWX 060159 COR
MTRDMH
METAR KDMH 060154Z AUTO M05/M09 A3043 RMK AO1 SLP302 T10501094





000
SAUS41 KLWX 060159
MTRNAK
METAR KNAK 060154Z AUTO 34008KT 10SM OVC095 M04/M08 A3038 RMK AO2
SLP290 T10441083





000
SAUS41 KLWX 060159 COR
MTRDMH
METAR KDMH 060154Z AUTO M05/M09 A3043 RMK AO1 SLP302 T10501094





000
SAUS41 KLWX 060159
MTRNAK
METAR KNAK 060154Z AUTO 34008KT 10SM OVC095 M04/M08 A3038 RMK AO2
SLP290 T10441083





000
SAUS41 KLWX 060159
MTRRSP
METAR KRSP 060154Z AUTO 10SM OVC110 M10/M14 RMK AO2 SLPNO T11001139
$





000
SAUS41 KLWX 060141 COR
MTRDMH
SPECI KDMH 060136Z AUTO M05/M09 A3044 RMK AO1 T10501094





000
SAUS41 KLWX 060141 COR
MTRDMH
SPECI KDMH 060136Z AUTO M05/M09 A3044 RMK AO1 T10501094





000
SAUS41 KLWX 060100
MTRRYT
METAR KRYT 060053Z AUTO 00000KT 10SM OVC110 M07/M12 A3031 RMK AO2
SLP285 T10671122 $





000
SAUS41 KLWX 060100
MTRRYT
METAR KRYT 060053Z AUTO 00000KT 10SM OVC110 M07/M12 A3031 RMK AO2
SLP285 T10671122 $





000
SAUS41 KLWX 060059
MTRNAK
METAR KNAK 060054Z AUTO 35009KT 10SM SCT070 OVC095 M04/M09 A3036 RMK
AO2 SNB10E21 PRESRR SLP282 P0000 T10441089





000
SAUS41 KLWX 060059 COR
MTRDMH
METAR KDMH 060054Z AUTO M04/M10 A3035 RMK AO1 PRESRR SLP276
T10441100





000
SAUS41 KLWX 060059 COR
MTRDMH
METAR KDMH 060054Z AUTO M04/M10 A3035 RMK AO1 PRESRR SLP276
T10441100





000
SAUS41 KLWX 060059
MTRNAK
METAR KNAK 060054Z AUTO 35009KT 10SM SCT070 OVC095 M04/M09 A3036 RMK
AO2 SNB10E21 PRESRR SLP282 P0000 T10441089





000
SAUS41 KLWX 060059
MTRRSP
METAR KRSP 060054Z AUTO 10SM FEW080 OVC095 M09/M13 RMK AO2 SNE09
SLPNO P0000 T10941128 $





000
SAUS41 KLWX 060059
MTRRSP
METAR KRSP 060054Z AUTO 10SM FEW080 OVC095 M09/M13 RMK AO2 SNE09
SLPNO P0000 T10941128 $





000
SAUS41 KLWX 060009
MTRRSP
SPECI KRSP 060004Z AUTO 3SM -SN BR SCT048 BKN080 OVC090 M09/M12 RMK
AO2 P0000 $





000
SAUS41 KLWX 060009
MTRRSP
SPECI KRSP 060004Z AUTO 3SM -SN BR SCT048 BKN080 OVC090 M09/M12 RMK
AO2 P0000 $





000
SAUS41 KLWX 060000
MTRRYT
METAR KRYT 052353Z AUTO 32004KT 9SM SCT060 BKN080 OVC095 M07/M12
A3026 RMK AO2 SNB10E49 SLP268 P0000 60012 T10671117 11044 21067
51028 $





000
SAUS41 KLWX 060000
MTRRYT
METAR KRYT 052353Z AUTO 32004KT 9SM SCT060 BKN080 OVC095 M07/M12
A3026 RMK AO2 SNB10E49 SLP268 P0000 60012 T10671117 11044 21067
51028 $





000
SAUS41 KLWX 052359
MTRRSP
METAR KRSP 052354Z AUTO 1 1/2SM -SN BR BKN046 BKN065 OVC090 M09/M12
RMK AO2 SNB09 SLPNO P0001 60016 T10941117 11067 21094 $





000
SAUS41 KLWX 052359
MTRNAK
METAR KNAK 052354Z AUTO 34012KT 7SM BKN060 OVC080 M04/M07 A3031 RMK
AO2 SNE31B39E49 SLP267 P0000 60020 T10391072 11011 21044 51036





000
SAUS41 KLWX 052359 COR
MTRDMH
METAR KDMH 052354Z AUTO M04/M10 A3025 RMK AO1 SLP242 60017 T10441100
11011 21044 50000





000
SAUS41 KLWX 052359 COR
MTRDMH
METAR KDMH 052354Z AUTO M04/M10 A3025 RMK AO1 SLP242 60017 T10441100
11011 21044 50000





000
SAUS41 KLWX 052359
MTRRSP
METAR KRSP 052354Z AUTO 1 1/2SM -SN BR BKN046 BKN065 OVC090 M09/M12
RMK AO2 SNB09 SLPNO P0001 60016 T10941117 11067 21094 $





000
SAUS41 KLWX 052359
MTRNAK
METAR KNAK 052354Z AUTO 34012KT 7SM BKN060 OVC080 M04/M07 A3031 RMK
AO2 SNE31B39E49 SLP267 P0000 60020 T10391072 11011 21044 51036





000
SAUS41 KLWX 052338
MTRNAK
SPECI KNAK 052333Z AUTO 34009KT 4SM BR SCT018 BKN049 OVC070 M04/M07
A3030 RMK AO2 SNE31 P0000 T10441067





000
SAUS41 KLWX 052338
MTRNAK
SPECI KNAK 052333Z AUTO 34009KT 4SM BR SCT018 BKN049 OVC070 M04/M07
A3030 RMK AO2 SNE31 P0000 T10441067





000
SAUS41 KLWX 052335
MTRRSP
SPECI KRSP 052330Z AUTO 1 3/4SM -SN BKN042 OVC080 M09/M12 RMK AO2
SNB09 P0001 $





000
SAUS41 KLWX 052335
MTRRSP
SPECI KRSP 052330Z AUTO 1 3/4SM -SN BKN042 OVC080 M09/M12 RMK AO2
SNB09 P0001 $





000
SAUS41 KLWX 052327
MTRNAK
SPECI KNAK 052322Z AUTO 35011KT 3SM -SN BR BKN019 OVC035 M04/M07
A3028 RMK AO2 P0000 T10441067





000
SAUS41 KLWX 052315
MTRNAK
SPECI KNAK 052310Z AUTO 36011KT 3SM -SN BR SCT019 OVC031 M04/M07
A3027 RMK AO2 P0000 T10441067





000
SAUS41 KLWX 052315
MTRNAK
SPECI KNAK 052310Z AUTO 36011KT 3SM -SN BR SCT019 OVC031 M04/M07
A3027 RMK AO2 P0000 T10441067





000
SAUS41 KLWX 052300
MTRRYT
METAR KRYT 052253Z AUTO VRB03KT 9SM OVC090 M07/M12 A3023 RMK AO2
SLP258 T10671122 $





000
SAUS41 KLWX 052300
MTRRYT
METAR KRYT 052253Z AUTO VRB03KT 9SM OVC090 M07/M12 A3023 RMK AO2
SLP258 T10671122 $





000
SAUS41 KLWX 052259
MTRRSP
METAR KRSP 052254Z AUTO 7SM OVC080 M09/M12 RMK AO2 SNE18 SLPNO P0000
T10941122 $





000
SAUS41 KLWX 052259
MTRNAK
METAR KNAK 052254Z AUTO 35012KT 1 1/2SM -SN BR OVC029 M04/M07 A3029
RMK AO2 PRESRR SLP257 P0000 T10441067





000
SAUS41 KLWX 052259 COR
MTRDMH
METAR KDMH 052254Z AUTO M04/M09 A3029 RMK AO1 SLP257 T10441089





000
SAUS41 KLWX 052259 COR
MTRDMH
METAR KDMH 052254Z AUTO M04/M09 A3029 RMK AO1 SLP257 T10441089





000
SAUS41 KLWX 052259
MTRRSP
METAR KRSP 052254Z AUTO 7SM OVC080 M09/M12 RMK AO2 SNE18 SLPNO P0000
T10941122 $





000
SAUS41 KLWX 052259
MTRNAK
METAR KNAK 052254Z AUTO 35012KT 1 1/2SM -SN BR OVC029 M04/M07 A3029
RMK AO2 PRESRR SLP257 P0000 T10441067





000
SAUS41 KLWX 052237
MTRRYT
SPECI KRYT 052230Z AUTO 00000KT 9SM BKN031 OVC090 M07/M11 A3022 RMK
AO2 $





000
SAUS41 KLWX 052228
MTRRSP
SPECI KRSP 052223Z AUTO 6SM BR FEW007 OVC075 M09/M12 RMK AO2 SNE18
P0000 $





000
SAUS41 KLWX 052228
MTRRSP
SPECI KRSP 052223Z AUTO 6SM BR FEW007 OVC075 M09/M12 RMK AO2 SNE18
P0000 $





000
SAUS41 KLWX 052224
MTRNAK
SPECI KNAK 052219Z AUTO 01009KT 3/4SM -SN BR VV016 M04/M06 A3026 RMK
AO2 P0000 T10441061





000
SAUS41 KLWX 052224
MTRNAK
SPECI KNAK 052219Z AUTO 01009KT 3/4SM -SN BR VV016 M04/M06 A3026 RMK
AO2 P0000 T10441061





000
SAUS41 KLWX 052221
MTRRSP
SPECI KRSP 052216Z AUTO 2 1/2SM -SN SCT007 OVC070 M09/M12 RMK AO2
P0000 $





000
SAUS41 KLWX 052200
MTRRYT
METAR KRYT 052153Z AUTO VRB03KT 5SM HZ BKN018 BKN023 OVC037 M07/M10
A3021 RMK AO2 SNE48 SLP249 P0000 T10671100 $





000
SAUS41 KLWX 052159 COR
MTRDMH
METAR KDMH 052154Z AUTO M04/M07 A3026 RMK AO1 SLP246 P0002 T10441072





000
SAUS41 KLWX 052159
MTRNAK
METAR KNAK 052154Z AUTO 35010KT 1/2SM -SN FZFG VV013 M03/M05 A3025
RMK AO2 SLP246 P0003 T10331050





000
SAUS41 KLWX 052159
MTRRSP
METAR KRSP 052154Z AUTO 1 1/4SM -SN BR OVC007 M09/M11 RMK AO2 SLPNO
P0000 T10891111 $





000
SAUS41 KLWX 052151
MTRNAK
SPECI KNAK 052146Z AUTO 01008KT 1/2SM -SN FZFG VV013 M04/M06 A3025
RMK AO2 P0002 T10391056





000
SAUS41 KLWX 052151
MTRNAK
SPECI KNAK 052146Z AUTO 01008KT 1/2SM -SN FZFG VV013 M04/M06 A3025
RMK AO2 P0002 T10391056





000
SAUS41 KLWX 052150
MTRRSP
SPECI KRSP 052145Z AUTO 1 3/4SM BR BKN007 OVC046 M09/M11 RMK AO2
SNE40 P0000 $





000
SAUS41 KLWX 052150
MTRRYT
SPECI KRYT 052143Z AUTO 27005KT 3SM -SN BKN018 OVC023 M07/M10 A3021
RMK AO2 P0000 $





000
SAUS41 KLWX 052139
MTRNAK
SPECI KNAK 052134Z AUTO 03009KT 1/4SM SN FZFG VV011 M04/M06 A3022
RMK AO2 P0002 T10391056





000
SAUS41 KLWX 052139
MTRNAK
SPECI KNAK 052134Z AUTO 03009KT 1/4SM SN FZFG VV011 M04/M06 A3022
RMK AO2 P0002 T10391056





000
SAUS41 KLWX 052138
MTRRYT
SPECI KRYT 052131Z AUTO VRB04KT 1 3/4SM -SN SCT018 BKN023 OVC080
M07/M09 A3022 RMK AO2 P0000 $





000
SAUS41 KLWX 052138
MTRRYT
SPECI KRYT 052131Z AUTO VRB04KT 1 3/4SM -SN SCT018 BKN023 OVC080
M07/M09 A3022 RMK AO2 P0000 $





000
SAUS41 KLWX 052138
MTRRSP
SPECI KRSP 052134Z AUTO 2SM -SN BR BKN007 OVC046 M09/M11 RMK AO2
P0000 $





000
SAUS41 KLWX 052138
MTRRSP
SPECI KRSP 052134Z AUTO 2SM -SN BR BKN007 OVC046 M09/M11 RMK AO2
P0000 $





000
SAUS41 KLWX 052131
MTRNAK
SPECI KNAK 052126Z AUTO 01007KT 1/2SM SN FZFG VV012 M04/M05 A3023
RMK AO2 P0001 T10391050





000
SAUS41 KLWX 052131
MTRRSP
SPECI KRSP 052126Z AUTO 1 3/4SM -SN BR BKN007 BKN043 OVC070 M09/M11
RMK AO2 P0000 $





000
SAUS41 KLWX 052125
MTRRYT
SPECI KRYT 052118Z AUTO VRB03KT 3SM HZ FEW019 BKN024 OVC080 M06/M09
A3020 RMK AO2 SNE11 P0000 $





000
SAUS41 KLWX 052122
MTRNAK
SPECI KNAK 052117Z AUTO 02010KT 1/4SM SN FZFG VV012 M03/M05 A3023
RMK AO2 P0001 T10331050





000
SAUS41 KLWX 052119
MTRRSP
SPECI KRSP 052114Z AUTO 2 1/2SM BR BKN007 OVC070 M08/M11 RMK AO2
SNE07 P0000 $





000
SAUS41 KLWX 052117
MTRRYT
SPECI KRYT 052110Z AUTO VRB04KT 2 1/2SM -SN FEW016 BKN021 OVC080
M06/M09 A3017 RMK AO2 P0000 $





000
SAUS41 KLWX 052105
MTRRSP
SPECI KRSP 052101Z AUTO 1 1/4SM -SN BR OVC007 M08/M11 RMK AO2 P0000
$





000
SAUS41 KLWX 052100
MTRRYT
METAR KRYT 052053Z AUTO VRB03KT 1SM -SN VV017 M06/M09 A3017 RMK AO2
SLP235 P0003 60012 T10611089 53009 $





000
SAUS41 KLWX 052059 COR
MTRDMH
METAR KDMH 052054Z AUTO M03/M05 A3025 RMK AO1 SLP242 P0005 60015
T10331050 50030





000
SAUS41 KLWX 052059
MTRRSP
METAR KRSP 052054Z AUTO 3/4SM -SN BR OVC007 M08/M11 RMK AO2 SLPNO
P0004 60015 T10831106 $





000
SAUS41 KLWX 052059
MTRNAK
METAR KNAK 052054Z AUTO 02009G15KT 1/2SM SN FZFG VV011 M03/M05 A3021
RMK AO2 SLP231 P0007 60017 T10331050 53017





000
SAUS41 KLWX 052051
MTRNAK
SPECI KNAK 052046Z AUTO 02009KT 1/2SM SN FZFG VV011 M03/M04 A3020
RMK AO2 P0007 T10331044





000
SAUS41 KLWX 052044
MTRNAK
SPECI KNAK 052039Z AUTO 01008KT 1/4SM SN FZFG VV010 M03/M04 A3021
RMK AO2 P0006 T10281044





000
SAUS41 KLWX 052044
MTRNAK
SPECI KNAK 052039Z AUTO 01008KT 1/4SM SN FZFG VV010 M03/M04 A3021
RMK AO2 P0006 T10281044





000
SAUS41 KLWX 052011
MTRRYT
SPECI KRYT 052004Z AUTO 00000KT 1/2SM SN VV010 M06/M08 A3014 RMK AO2
P0001 $





000
SAUS41 KLWX 052000
MTRRYT
METAR KRYT 051953Z AUTO VRB04KT 1/4SM +SN VV009 M06/M08 A3014 RMK
AO2 SLP225 P0004 T10561083 $





000
SAUS41 KLWX 051959 COR
MTRDMH
METAR KDMH 051954Z AUTO M03/M04 A3025 RMK AO1 PRESRR SLP243 P0007
T10331044





000
SAUS41 KLWX 051959
MTRRSP
METAR KRSP 051954Z AUTO 1/4SM SN FZFG VV008 M07/M09 RMK AO2 SLPNO
P0004 T10721094 $





000
SAUS41 KLWX 051959
MTRNAK
METAR KNAK 051954Z AUTO 03009KT 1/4SM SN FZFG VV009 M03/M04 A3018
RMK AO2 SLP223 P0006 T10281044





000
SAUS41 KLWX 051959 COR
MTRDMH
METAR KDMH 051954Z AUTO M03/M04 A3025 RMK AO1 PRESRR SLP243 P0007
T10331044





000
SAUS41 KLWX 051959
MTRNAK
METAR KNAK 051954Z AUTO 03009KT 1/4SM SN FZFG VV009 M03/M04 A3018
RMK AO2 SLP223 P0006 T10281044





000
SAUS41 KLWX 051959
MTRRSP
METAR KRSP 051954Z AUTO 1/4SM SN FZFG VV008 M07/M09 RMK AO2 SLPNO
P0004 T10721094 $





000
SAUS41 KLWX 051940
MTRNAK
SPECI KNAK 051935Z AUTO 02009KT 1/4SM SN FZFG VV009 M02/M04 A3019
RMK AO2 P0004 T10221039





000
SAUS41 KLWX 051940
MTRNAK
SPECI KNAK 051935Z AUTO 02009KT 1/4SM SN FZFG VV009 M02/M04 A3019
RMK AO2 P0004 T10221039





000
SAUS41 KLWX 051922
MTRRYT
SPECI KRYT 051915Z AUTO 27003KT 1/2SM -SN FZFG VV010 M05/M07 A3013
RMK AO2 P0002 $





000
SAUS41 KLWX 051922
MTRRYT
SPECI KRYT 051915Z AUTO 27003KT 1/2SM -SN FZFG VV010 M05/M07 A3013
RMK AO2 P0002 $





000
SAUS41 KLWX 051900
MTRRYT
METAR KRYT 051853Z AUTO 28004KT 1/2SM SN FZFG VV009 M05/M07 A3014
RMK AO2 SLP225 P0005 T10501072 $





000
SAUS41 KLWX 051900
MTRRYT
METAR KRYT 051853Z AUTO 28004KT 1/2SM SN FZFG VV009 M05/M07 A3014
RMK AO2 SLP225 P0005 T10501072 $





000
SAUS41 KLWX 051859 COR
MTRDMH
METAR KDMH 051854Z AUTO M02/M04 A3017 RMK AO1 SLP217 P0003 T10221039





000
SAUS41 KLWX 051859
MTRNAK
METAR KNAK 051854Z AUTO 35007KT 1/4SM +SN FZFG FEW007 OVC011 M01/M03
A3018 RMK AO2 SLP221 P0004 T10111028





000
SAUS41 KLWX 051859
MTRRSP
METAR KRSP 051854Z AUTO 1/4SM SN FZFG VV007 M07/M09 RMK AO2 SLPNO
P0007 T10721089 $





000
SAUS41 KLWX 051859
MTRRSP
METAR KRSP 051854Z AUTO 1/4SM SN FZFG VV007 M07/M09 RMK AO2 SLPNO
P0007 T10721089 $





000
SAUS41 KLWX 051837
MTRNAK
SPECI KNAK 051832Z AUTO 35010KT 1/4SM SN FZFG VV010 M01/M03 A3019
RMK AO2 P0002 T10111028





000
SAUS41 KLWX 051823
MTRNAK
SPECI KNAK 051818Z AUTO 36010KT 1/2SM SN FZFG OVC009 M01/M03 A3017
RMK AO2 P0002 T10111028





000
SAUS41 KLWX 051814
MTRNAK
SPECI KNAK 051809Z AUTO 02010KT 1/2SM SN FZFG BKN010 OVC014 M01/M02
A3016 RMK AO2 P0001 T10111022





000
SAUS41 KLWX 051801
MTRRYT
METAR KRYT 051753Z AUTO 00000KT 1/2SM SN FZFG VV008 M04/M07 A3014
RMK AO2 SLP225 P0006 60040 T10441067 11011 21044 51019 $





000
SAUS41 KLWX 051759
MTRNAK
METAR KNAK 051754Z AUTO 35010KT 1SM -SN BR BKN010 BKN016 OVC023
M01/M02 A3016 RMK AO2 SLP214 P0005 60024 T10061022 10017 21006 51012





000
SAUS41 KLWX 051759 COR
MTRDMH
METAR KDMH 051754Z AUTO M01/M03 A3016 RMK AO1 SLP212 P0004 60030
T10111033 10011 21011 50014





000
SAUS41 KLWX 051759
MTRRSP
METAR KRSP 051754Z AUTO 1/4SM SN FZFG VV005 M07/M09 RMK AO2 SLPNO
P0008 60058 T10721089 11033 21072 $





000
SAUS41 KLWX 051751
MTRNAK
SPECI KNAK 051746Z AUTO 36010KT 1SM -SN BR FEW009 BKN015 OVC023
M01/M02 A3014 RMK AO2 P0005 T10061022





000
SAUS41 KLWX 051751
MTRNAK
SPECI KNAK 051746Z AUTO 36010KT 1SM -SN BR FEW009 BKN015 OVC023
M01/M02 A3014 RMK AO2 P0005 T10061022





000
SAUS41 KLWX 051740
MTRNAK
SPECI KNAK 051735Z AUTO 35008KT 3/4SM -SN BR SCT007 OVC015 M01/M02
A3015 RMK AO2 P0005 T10061017





000
SAUS41 KLWX 051711
MTRRYT
SPECI KRYT 051704Z AUTO VRB04KT 1/4SM +SN VV006 M04/M07 A3014 RMK
AO2 P0001 $





000
SAUS41 KLWX 051706
MTRNAK
SPECI KNAK 051701Z AUTO 31009KT 1/4SM SN FZFG VV009 M01/M02 A3016
RMK AO2 P0001 T10061017





000
SAUS41 KLWX 051700
MTRRYT
METAR KRYT 051653Z AUTO VRB03KT 1/4SM SN FZFG VV007 M04/M06 A3013
RMK AO2 SLP220 P0007 T10391061 $





000
SAUS41 KLWX 051700
MTRRYT
METAR KRYT 051653Z AUTO VRB03KT 1/4SM SN FZFG VV007 M04/M06 A3013
RMK AO2 SLP220 P0007 T10391061 $





000
SAUS41 KLWX 051659 COR
MTRDMH
METAR KDMH 051654Z AUTO M01/M03 A3017 RMK AO1 SLP215 P0007 T10061028





000
SAUS41 KLWX 051659
MTRNAK
METAR KNAK 051654Z AUTO 32009KT 1/4SM SN FZFG FEW007 OVC011 M01/M01
A3016 RMK AO2 SLP214 P0006 T10061011





000
SAUS41 KLWX 051659 COR
MTRDMH
METAR KDMH 051654Z AUTO M01/M03 A3017 RMK AO1 SLP215 P0007 T10061028





000
SAUS41 KLWX 051659
MTRNAK
METAR KNAK 051654Z AUTO 32009KT 1/4SM SN FZFG FEW007 OVC011 M01/M01
A3016 RMK AO2 SLP214 P0006 T10061011





000
SAUS41 KLWX 051659
MTRRSP
METAR KRSP 051654Z AUTO 1/4SM +SN FZFG VV005 M07/M08 RMK AO2 SLPNO
P0011 T10671083 $





000
SAUS41 KLWX 051659
MTRRSP
METAR KRSP 051654Z AUTO 1/4SM +SN FZFG VV005 M07/M08 RMK AO2 SLPNO
P0011 T10671083 $





000
SAUS41 KLWX 051649
MTRNAK
SPECI KNAK 051644Z AUTO 33009KT 1/4SM SN FZFG FEW007 OVC011 M01/M01
A3017 RMK AO2 P0005 T10061011





000
SAUS41 KLWX 051649
MTRRYT
SPECI KRYT 051642Z AUTO 33004KT 1/4SM SN FZFG VV008 M04/M06 A3013
RMK AO2 P0005 $





000
SAUS41 KLWX 051638
MTRNAK
SPECI KNAK 051633Z AUTO 32007KT 1/2SM SN FZFG VV010 M01/M02 A3018
RMK AO2 P0004 T10061017





000
SAUS41 KLWX 051638
MTRNAK
SPECI KNAK 051633Z AUTO 32007KT 1/2SM SN FZFG VV010 M01/M02 A3018
RMK AO2 P0004 T10061017





000
SAUS41 KLWX 051635
MTRRSP
SPECI KRSP 051630Z AUTO 1/4SM SN FZFG VV005 M07/M08 RMK AO2 P0007 $





000
SAUS41 KLWX 051635
MTRRSP
SPECI KRSP 051630Z AUTO 1/4SM SN FZFG VV005 M07/M08 RMK AO2 P0007 $





000
SAUS41 KLWX 051633
MTRRYT
SPECI KRYT 051626Z AUTO 34005KT 1/2SM SN VV008 M04/M07 A3013 RMK AO2
P0004 $





000
SAUS41 KLWX 051633
MTRRYT
SPECI KRYT 051626Z AUTO 34005KT 1/2SM SN VV008 M04/M07 A3013 RMK AO2
P0004 $





000
SAUS41 KLWX 051616
MTRNAK
SPECI KNAK 051611Z AUTO 32010KT 1/2SM -SN FG BKN008 OVC015 00/M01
A3017 RMK AO2 P0001 T00001011





000
SAUS41 KLWX 051616
MTRNAK
SPECI KNAK 051611Z AUTO 32010KT 1/2SM -SN FG BKN008 OVC015 00/M01
A3017 RMK AO2 P0001 T00001011





000
SAUS41 KLWX 051601 COR
MTRDMH
METAR KDMH 051554Z AUTO 00/M02 A3014 RMK AO1 SLP207 P0007 T00001017





000
SAUS41 KLWX 051601 COR
MTRDMH
METAR KDMH 051554Z AUTO 00/M02 A3014 RMK AO1 SLP207 P0007 T00001017





000
SAUS41 KLWX 051600
MTRRYT
METAR KRYT 051553Z AUTO 01005KT 1/4SM +SN VV006 M03/M06 A3012 RMK
AO2 SLP216 P0007 T10331061 $





000
SAUS41 KLWX 051600
MTRRYT
METAR KRYT 051553Z AUTO 01005KT 1/4SM +SN VV006 M03/M06 A3012 RMK
AO2 SLP216 P0007 T10331061 $





000
SAUS41 KLWX 051559
MTRRSP
METAR KRSP 051554Z AUTO M1/4SM +SN FZFG VV004 M06/M08 RMK AO2 SLPNO
P0011 T10611078 $





000
SAUS41 KLWX 051559
MTRRSP
METAR KRSP 051554Z AUTO M1/4SM +SN FZFG VV004 M06/M08 RMK AO2 SLPNO
P0011 T10611078 $





000
SAUS41 KLWX 051559
MTRNAK
METAR KNAK 051554Z AUTO 34007KT 3/4SM -SN BR SCT010 OVC018 00/M01
A3015 RMK AO2 SLP212 P0003 T00001011





000
SAUS41 KLWX 051559
MTRNAK
METAR KNAK 051554Z AUTO 34007KT 3/4SM -SN BR SCT010 OVC018 00/M01
A3015 RMK AO2 SLP212 P0003 T00001011





000
SAUS41 KLWX 051544
MTRRSP
SPECI KRSP 051539Z AUTO 1/4SM SN FZFG VV004 M06/M07 RMK AO2 P0008 $





000
SAUS41 KLWX 051543
MTRRYT
SPECI KRYT 051542Z AUTO 33003KT 1/4SM +SN VV007 M03/M06 A3013 RMK
AO2 P0005 $





000
SAUS41 KLWX 051543
MTRRYT
SPECI KRYT 051542Z AUTO 33003KT 1/4SM +SN VV007 M03/M06 A3013 RMK
AO2 P0005 $





000
SAUS41 KLWX 051535
MTRRYT
SPECI KRYT 051528Z AUTO 00000KT 1/4SM SN FZFG VV009 M03/M06 A3012
RMK AO2 P0003 $





000
SAUS41 KLWX 051535
MTRRYT
SPECI KRYT 051528Z AUTO 00000KT 1/4SM SN FZFG VV009 M03/M06 A3012
RMK AO2 P0003 $





000
SAUS41 KLWX 051531
MTRNAK
SPECI KNAK 051526Z AUTO 34009KT 3/4SM -SN BR FEW010 OVC018 00/M02
A3014 RMK AO2 P0001 T00001017





000
SAUS41 KLWX 051526
MTRRYT
SPECI KRYT 051519Z AUTO VRB03KT 1/2SM SN FZFG VV009 M03/M06 A3013
RMK AO2 PRESRR P0002 $





000
SAUS41 KLWX 051517
MTRRSP
SPECI KRSP 051511Z AUTO 1/4SM SN FZFG VV005 M06/M07 RMK AO2 P0003 $





000
SAUS41 KLWX 051517
MTRRSP
SPECI KRSP 051511Z AUTO 1/4SM SN FZFG VV005 M06/M07 RMK AO2 P0003 $





000
SAUS41 KLWX 051500
MTRRYT
METAR KRYT 051453Z AUTO 02005KT 1/4SM +SN VV006 M03/M06 A3008 RMK
AO2 SLP202 P0011 60020 T10281056 50012 $





000
SAUS41 KLWX 051500
MTRRYT
METAR KRYT 051453Z AUTO 02005KT 1/4SM +SN VV006 M03/M06 A3008 RMK
AO2 SLP202 P0011 60020 T10281056 50012 $





000
SAUS41 KLWX 051459
MTRNAK
METAR KNAK 051454Z AUTO 34008KT 3/4SM -SN BR BKN012 OVC017 00/M01
A3012 RMK AO2 SLP203 P0003 60010 T00001011 51022





000
SAUS41 KLWX 051459 COR
MTRDMH
METAR KDMH 051454Z AUTO 01/M01 A3012 RMK AO1 SLP198 P0005 60012
T00061011 50023





000
SAUS41 KLWX 051459 COR
MTRDMH
METAR KDMH 051454Z AUTO 01/M01 A3012 RMK AO1 SLP198 P0005 60012
T00061011 50023





000
SAUS41 KLWX 051459
MTRNAK
METAR KNAK 051454Z AUTO 34008KT 3/4SM -SN BR BKN012 OVC017 00/M01
A3012 RMK AO2 SLP203 P0003 60010 T00001011 51022





000
SAUS41 KLWX 051458
MTRRSP
METAR KRSP 051454Z AUTO 1/4SM SN FZFG VV004 M05/M07 RMK AO2 SLPNO
P0015 60028 T10501067 $





000
SAUS41 KLWX 051458
MTRRSP
METAR KRSP 051454Z AUTO 1/4SM SN FZFG VV004 M05/M07 RMK AO2 SLPNO
P0015 60028 T10501067 $





000
SAUS41 KLWX 051446
MTRNAK
SPECI KNAK 051441Z AUTO 34009KT 3/4SM -SN BR BKN010 BKN015 OVC023
00/M02 A3012 RMK AO2 P0002 T00001017





000
SAUS41 KLWX 051446
MTRNAK
SPECI KNAK 051441Z AUTO 34009KT 3/4SM -SN BR BKN010 BKN015 OVC023
00/M02 A3012 RMK AO2 P0002 T00001017





000
SAUS41 KLWX 051429
MTRNAK
SPECI KNAK 051424Z AUTO 34009KT 1 3/4SM -SN BR BKN012 BKN021 OVC041
00/M02 A3013 RMK AO2 P0001 T00001017





000
SAUS41 KLWX 051429
MTRNAK
SPECI KNAK 051424Z AUTO 34009KT 1 3/4SM -SN BR BKN012 BKN021 OVC041
00/M02 A3013 RMK AO2 P0001 T00001017





000
SAUS41 KLWX 051411
MTRRYT
SPECI KRYT 051404Z AUTO 00000KT 1/4SM SN FZFG VV006 M03/M05 A3010
RMK AO2 P0002 $





000
SAUS41 KLWX 051411
MTRRYT
SPECI KRYT 051404Z AUTO 00000KT 1/4SM SN FZFG VV006 M03/M05 A3010
RMK AO2 P0002 $





000
SAUS41 KLWX 051400
MTRRYT
METAR KRYT 051353Z AUTO 29003KT 1/4SM SN FZFG VV007 M03/M04 A3009
RMK AO2 SLP204 P0006 T10281044 $





000
SAUS41 KLWX 051400 COR
MTRDMH
METAR KDMH 051354Z AUTO 00/M01 A3012 RMK AO1 SLP200 P0003 T00001011





000
SAUS41 KLWX 051359
MTRNAK
METAR KNAK 051354Z AUTO 35011KT 2SM -SN BR BKN013 OVC017 00/M02
A3012 RMK AO2 RAE07SNB07 SLP200 P0005 T00001017





000
SAUS41 KLWX 051359 COR
MTRDMH
METAR KDMH 051354Z AUTO 00/M01 A3012 RMK AO1 SLP200 P0003 T00001011





000
SAUS41 KLWX 051359
MTRRSP
METAR KRSP 051354Z AUTO M1/4SM SN FZFG VV004 M05/M07 RMK AO2 SLPNO
P0008 T10501067 $





000
SAUS41 KLWX 051350
MTRNAK
SPECI KNAK 051345Z AUTO 35012KT 1 3/4SM -SN BR BKN013 OVC055 00/M02
A3012 RMK AO2 RAE07SNB07 P0004 T00001017





000
SAUS41 KLWX 051341
MTRNAK
SPECI KNAK 051336Z AUTO 34010KT 1 3/4SM -SN BR BKN015 BKN060 OVC070
01/M02 A3012 RMK AO2 RAE07SNB07 P0003 T00061017





000
SAUS41 KLWX 051339
MTRRYT
SPECI KRYT 051332Z AUTO 00000KT 1/4SM SN FZFG VV009 M03/M04 A3009
RMK AO2 P0003 $





000
SAUS41 KLWX 051331
MTRRYT
SPECI KRYT 051324Z AUTO VRB03KT 1/2SM SN FZFG VV011 M03/M04 A3009
RMK AO2 P0002 $





000
SAUS41 KLWX 051331
MTRRYT
SPECI KRYT 051324Z AUTO VRB03KT 1/2SM SN FZFG VV011 M03/M04 A3009
RMK AO2 P0002 $





000
SAUS41 KLWX 051326
MTRNAK
SPECI KNAK 051321Z AUTO 33011KT 2SM -SN BR FEW015 SCT050 OVC065
01/M02 A3013 RMK AO2 RAE07SNB07 P0002 T00061017





000
SAUS41 KLWX 051326
MTRNAK
SPECI KNAK 051321Z AUTO 33011KT 2SM -SN BR FEW015 SCT050 OVC065
01/M02 A3013 RMK AO2 RAE07SNB07 P0002 T00061017





000
SAUS41 KLWX 051317
MTRRYT
SPECI KRYT 051310Z AUTO VRB04KT 1/4SM SN FZFG VV011 M03/M04 A3009
RMK AO2 P0002 $





000
SAUS41 KLWX 051309
MTRRYT
SPECI KRYT 051302Z AUTO 31003KT 1/2SM SN FZFG VV012 M02/M04 A3008
RMK AO2 P0001 $





000
SAUS41 KLWX 051300
MTRRYT
METAR KRYT 051253Z AUTO VRB04KT 1/2SM SN FZFG VV015 M02/M04 A3007
RMK AO2 SLP196 P0003 T10221044 $





000
SAUS41 KLWX 051259 COR
MTRDMH
METAR KDMH 051254Z AUTO 01/M02 A3010 RMK AO1 PRESRR SLP192 P0004
T00061017





000
SAUS41 KLWX 051259
MTRNAK
METAR KNAK 051254Z AUTO 34010KT 3SM -RA BR FEW015 BKN050 OVC070
01/M01 A3011 RMK AO2 UPE1158B29E31RAB47SNB31E47 PRESRR SLP198 P0002
T00061011





000
SAUS41 KLWX 051259
MTRRSP
METAR KRSP 051254Z AUTO 1/4SM SN FZFG VV007 M05/M07 RMK AO2 SLPNO
P0005 T10501067 $





000
SAUS41 KLWX 051248
MTRNAK
SPECI KNAK 051243Z AUTO 35011KT 2 1/2SM -SN FEW030 BKN050 OVC065
01/M02 A3008 RMK AO2 UPE1158B29E31SNB31 P0001 T00111017





000
SAUS41 KLWX 051222
MTRRSP
SPECI KRSP 051218Z AUTO 1/4SM -SN FZFG BKN006 OVC010 M04/M06 RMK AO2
P0002 $





000
SAUS41 KLWX 051220
MTRRYT
SPECI KRYT 051213Z AUTO VRB05KT 1/2SM SN OVC022 M02/M04 A3005 RMK
AO2 P0001 $





000
SAUS41 KLWX 051213
MTRRSP
SPECI KRSP 051209Z AUTO 1/2SM -SN FZFG OVC004 M03/M05 RMK AO2 P0001
$





000
SAUS41 KLWX 051211
MTRRYT
SPECI KRYT 051204Z AUTO 01006KT 1 1/4SM -SN OVC032 M01/M05 A3004 RMK
AO2 P0000 $





000
SAUS41 KLWX 051200
MTRRYT
METAR KRYT 051153Z AUTO VRB04KT 2SM -SN FEW024 OVC041 M01/M05 A3005
RMK AO2 SLP188 P0000 60039 70108 T10111050 10022 21011 51027 $





000
SAUS41 KLWX 051159 COR
MTRDMH
METAR KDMH 051154Z AUTO 02/M02 A3005 RMK AO1 SLP175 P0001 60006
70054 T00171017 10056 20017 51021





000
SAUS41 KLWX 051159
MTRNAK
METAR KNAK 051154Z AUTO 35010KT 5SM UP SCT032 OVC048 02/M01 A3006
RMK AO2 UPE04B47 SLP181 P0000 60012 70042 T00171011 10050 20017
51022





000
SAUS41 KLWX 051159
MTRRSP
METAR KRSP 051154Z AUTO 1 1/4SM -SN BR OVC004 M03/M04 RMK AO2 SLPNO
P0004 60047 70114 T10331044 10000 21033 $





000
SAUS41 KLWX 051159
MTRNAK
METAR KNAK 051154Z AUTO 35010KT 5SM UP SCT032 OVC048 02/M01 A3006
RMK AO2 UPE04B47 SLP181 P0000 60012 70042 T00171011 10050 20017
51022





000
SAUS41 KLWX 051159 COR
MTRDMH
METAR KDMH 051154Z AUTO 02/M02 A3005 RMK AO1 SLP175 P0001 60006
70054 T00171017 10056 20017 51021





000
SAUS41 KLWX 051159
MTRRSP
METAR KRSP 051154Z AUTO 1 1/4SM -SN BR OVC004 M03/M04 RMK AO2 SLPNO
P0004 60047 70114 T10331044 10000 21033 $





000
SAUS41 KLWX 051147
MTRRSP
SPECI KRSP 051142Z AUTO 1 1/4SM -SN BR OVC004 M03/M05 RMK AO2 CIG
003V009 P0004 $





000
SAUS41 KLWX 051147
MTRRSP
SPECI KRSP 051142Z AUTO 1 1/4SM -SN BR OVC004 M03/M05 RMK AO2 CIG
003V009 P0004 $





000
SAUS41 KLWX 051108
MTRRYT
SPECI KRYT 051102Z AUTO 02009KT 340V050 3SM -SN BKN018 OVC026
M01/M03 A3004 RMK AO2 P0000 $





000
SAUS41 KLWX 051100
MTRRYT
METAR KRYT 051053Z AUTO 01004KT 1 3/4SM -SN BR BKN018 OVC035 M01/M03
A3003 RMK AO2 SLP181 P0004 T10061028 $





000
SAUS41 KLWX 051059 COR
MTRDMH
METAR KDMH 051054Z AUTO 02/00 A3005 RMK AO1 SLP174 T00220000





000
SAUS41 KLWX 051059
MTRNAK
METAR KNAK 051054Z AUTO 36008KT 5SM UP BR FEW024 OVC049 02/00 A3004
RMK AO2 UPE07B24RAB0959E08B39E52 SLP175 P0001 T00220000





000
SAUS41 KLWX 051059
MTRNAK
METAR KNAK 051054Z AUTO 36008KT 5SM UP BR FEW024 OVC049 02/00 A3004
RMK AO2 UPE07B24RAB0959E08B39E52 SLP175 P0001 T00220000





000
SAUS41 KLWX 051059 COR
MTRDMH
METAR KDMH 051054Z AUTO 02/00 A3005 RMK AO1 SLP174 T00220000





000
SAUS41 KLWX 051059
MTRRSP
METAR KRSP 051054Z AUTO 1/2SM SN FZFG OVC002 M02/M04 RMK AO2 SLPNO
P0010 T10221039 $





000
SAUS41 KLWX 051059
MTRRSP
METAR KRSP 051054Z AUTO 1/2SM SN FZFG OVC002 M02/M04 RMK AO2 SLPNO
P0010 T10221039 $





000
SAUS41 KLWX 051040
MTRNAK
SPECI KNAK 051034Z AUTO 35008KT 7SM UP FEW013 SCT022 OVC047 02/01
A3004 RMK AO2 UPE07B24RAB0959E08 P0000 T00220006





000
SAUS41 KLWX 051036
MTRRYT
SPECI KRYT 051029Z AUTO VRB05KT 1 3/4SM -SN BR FEW010 SCT016 OVC022
00/M02 A3001 RMK AO2 P0002 $





000
SAUS41 KLWX 051036
MTRRYT
SPECI KRYT 051029Z AUTO VRB05KT 1 3/4SM -SN BR FEW010 SCT016 OVC022
00/M02 A3001 RMK AO2 P0002 $





000
SAUS41 KLWX 051033
MTRRSP
SPECI KRSP 051029Z AUTO 1/2SM SN FZFG OVC002 M02/M03 RMK AO2 P0005 $





000
SAUS41 KLWX 051025
MTRRYT
SPECI KRYT 051018Z AUTO 36004KT 1 1/2SM -SN BR BKN014 BKN019 OVC027
00/M02 A3001 RMK AO2 P0002 $





000
SAUS41 KLWX 051024
MTRRSP
SPECI KRSP 051020Z AUTO 1SM -SN BR OVC002 M02/M03 RMK AO2 P0004 $





000
SAUS41 KLWX 051012
MTRRSP
SPECI KRSP 051007Z AUTO 1/2SM SN FZFG OVC004 M02/M03 RMK AO2 CIG
002V007 P0002 $





000
SAUS41 KLWX 051000
MTRRYT
SPECI KRYT 050959Z AUTO 33006KT 2 1/2SM -SN BR SCT014 BKN019 OVC030
01/M02 A3000 RMK AO2 P0000 $





000
SAUS41 KLWX 051000
MTRRYT
SPECI KRYT 050959Z AUTO 33006KT 2 1/2SM -SN BR SCT014 BKN019 OVC030
01/M02 A3000 RMK AO2 P0000 $





000
SAUS41 KLWX 050959
MTRNAK
METAR KNAK 050954Z AUTO 34009KT 7SM UP FEW015 BKN021 OVC047 03/01
A3002 RMK AO2 RAB00E54UPB54 SLP166 P0004 T00280011





000
SAUS41 KLWX 050959 COR
MTRDMH
METAR KDMH 050954Z AUTO 03/00 A3001 RMK AO1 SLP162 P0001 T00280000





000
SAUS41 KLWX 050958
MTRRSP
METAR KRSP 050954Z AUTO 1 3/4SM -SN BR OVC004 M02/M03 RMK AO2 CIG
003V008 SLPNO P0004 T10221033 $





000
SAUS41 KLWX 050929
MTRRYT
SPECI KRYT 050928Z AUTO 00000KT 1 1/2SM -SN BR BKN014 OVC021 01/M01
A2997 RMK AO2 P0004 $





000
SAUS41 KLWX 050917
MTRRYT
SPECI KRYT 050910Z AUTO 00000KT 3SM -SN BR FEW016 BKN021 OVC055
01/M01 A2997 RMK AO2 P0002 $





000
SAUS41 KLWX 050917
MTRRSP
SPECI KRSP 050913Z AUTO 1 1/2SM -SN BR OVC004 M02/M03 RMK AO2 CIG
002V008 P0002 $





000
SAUS41 KLWX 050910
MTRRSP
SPECI KRSP 050905Z AUTO 2SM -SN BR OVC004 M02/M03 RMK AO2 CIG
002V008 P0001 $





000
SAUS41 KLWX 050910
MTRRSP
SPECI KRSP 050905Z AUTO 2SM -SN BR OVC004 M02/M03 RMK AO2 CIG
002V008 P0001 $





000
SAUS41 KLWX 050900
MTRRYT
METAR KRYT 050853Z AUTO 00000KT 3SM -SN BR FEW014 OVC055 01/M01
A2996 RMK AO2 SLP157 P0005 60028 T00111011 50007 $





000
SAUS41 KLWX 050859 COR
MTRDMH
METAR KDMH 050854Z AUTO 04/01 A2998 RMK AO1 PRESRR SLP153 P0001
60004 T00390011 51011





000
SAUS41 KLWX 050859
MTRNAK
METAR KNAK 050854Z AUTO 32011KT 9SM BKN023 OVC040 03/01 A2999 RMK
AO2 RAB09E45 PRESRR SLP158 P0001 60007 T00330011 53003





000
SAUS41 KLWX 050859 COR
MTRDMH
METAR KDMH 050854Z AUTO 04/01 A2998 RMK AO1 PRESRR SLP153 P0001
60004 T00390011 51011





000
SAUS41 KLWX 050859
MTRNAK
METAR KNAK 050854Z AUTO 32011KT 9SM BKN023 OVC040 03/01 A2999 RMK
AO2 RAB09E45 PRESRR SLP158 P0001 60007 T00330011 53003





000
SAUS41 KLWX 050858
MTRRSP
METAR KRSP 050854Z AUTO 1 1/4SM -SN BR OVC004 M01/M02 RMK AO2 CIG
002V006 SLPNO P0006 60029 T10111022 $





000
SAUS41 KLWX 050858
MTRRSP
METAR KRSP 050854Z AUTO 1 1/4SM -SN BR OVC004 M01/M02 RMK AO2 CIG
002V006 SLPNO P0006 60029 T10111022 $





000
SAUS41 KLWX 050848
MTRRYT
SPECI KRYT 050841Z AUTO 00000KT 3SM -SN BR FEW014 OVC042 01/M01
A2996 RMK AO2 P0003 $





000
SAUS41 KLWX 050848
MTRRYT
SPECI KRYT 050841Z AUTO 00000KT 3SM -SN BR FEW014 OVC042 01/M01
A2996 RMK AO2 P0003 $





000
SAUS41 KLWX 050840
MTRRYT
SPECI KRYT 050833Z AUTO 35006KT 2 1/2SM -SN BR FEW014 OVC032 01/M01
A2996 RMK AO2 P0002 $





000
SAUS41 KLWX 050834
MTRRSP
SPECI KRSP 050829Z AUTO 1 1/4SM -SN BR OVC002 M01/M02 RMK AO2 P0004
$





000
SAUS41 KLWX 050834
MTRRSP
SPECI KRSP 050829Z AUTO 1 1/4SM -SN BR OVC002 M01/M02 RMK AO2 P0004
$





000
SAUS41 KLWX 050821
MTRRYT
SPECI KRYT 050814Z AUTO 00000KT 1 1/4SM -SN BR FEW006 OVC015 01/M01
A2996 RMK AO2 P0002 $





000
SAUS41 KLWX 050821
MTRRYT
SPECI KRYT 050814Z AUTO 00000KT 1 1/4SM -SN BR FEW006 OVC015 01/M01
A2996 RMK AO2 P0002 $





000
SAUS41 KLWX 050811
MTRRYT
SPECI KRYT 050804Z AUTO 00000KT 1 3/4SM -SN BR SCT006 BKN014 OVC019
01/M01 A2995 RMK AO2 P0001 $





000
SAUS41 KLWX 050800
MTRRYT
METAR KRYT 050753Z AUTO 00000KT 2SM -SN BR BKN006 OVC011 01/M01
A2996 RMK AO2 RAB16E37SNE16B37 SLP157 P0003 T00111006 $





000
SAUS41 KLWX 050800
MTRRYT
METAR KRYT 050753Z AUTO 00000KT 2SM -SN BR BKN006 OVC011 01/M01
A2996 RMK AO2 RAB16E37SNE16B37 SLP157 P0003 T00111006 $





000
SAUS41 KLWX 050759
MTRNAK
METAR KNAK 050754Z AUTO 33006KT 6SM BR OVC015 03/02 A2996 RMK AO2
RAE42 SLP146 P0002 T00280017





000
SAUS41 KLWX 050759
MTRRSP
METAR KRSP 050754Z AUTO 1/4SM SN FZFG VV001 M01/M02 RMK AO2
UPE0657B14E18FZRAB0657E0658SNB0658E14B18 SLPNO P0006 T10111017 $





000
SAUS41 KLWX 050759 COR
MTRDMH
METAR KDMH 050754Z AUTO 04/03 A2998 RMK AO1 SLP151 P0001 T00440028





000
SAUS41 KLWX 050752
MTRNAK
SPECI KNAK 050747Z AUTO 32006KT 7SM BKN015 OVC044 04/03 A2996 RMK
AO2 RAE42 P0002 T00390028





000
SAUS41 KLWX 050752
MTRNAK
SPECI KNAK 050747Z AUTO 32006KT 7SM BKN015 OVC044 04/03 A2996 RMK
AO2 RAE42 P0002 T00390028





000
SAUS41 KLWX 050751
MTRRYT
SPECI KRYT 050744Z AUTO VRB03KT 2 1/2SM -SN BR BKN006 OVC012 01/M01
A2997 RMK AO2 RAB16E37SNE16B37 P0003 $





000
SAUS41 KLWX 050751
MTRRYT
SPECI KRYT 050744Z AUTO VRB03KT 2 1/2SM -SN BR BKN006 OVC012 01/M01
A2997 RMK AO2 RAB16E37SNE16B37 P0003 $





000
SAUS41 KLWX 050744
MTRNAK
SPECI KNAK 050739Z AUTO 31005KT 2 1/2SM -RA BR BKN013 BKN020 OVC042
04/03 A2997 RMK AO2 P0002 T00390028





000
SAUS41 KLWX 050744
MTRNAK
SPECI KNAK 050739Z AUTO 31005KT 2 1/2SM -RA BR BKN013 BKN020 OVC042
04/03 A2997 RMK AO2 P0002 T00390028





000
SAUS41 KLWX 050733
MTRNAK
SPECI KNAK 050728Z AUTO 00000KT 3SM -RA BR FEW007 BKN020 OVC042
04/04 A2998 RMK AO2 P0002 T00440039





000
SAUS41 KLWX 050733
MTRNAK
SPECI KNAK 050728Z AUTO 00000KT 3SM -RA BR FEW007 BKN020 OVC042
04/04 A2998 RMK AO2 P0002 T00440039





000
SAUS41 KLWX 050724
MTRNAK
SPECI KNAK 050723Z AUTO 29003KT 2 1/2SM -RA BR SCT007 BKN014 OVC042
04/04 A2998 RMK AO2 P0002 T00440039





000
SAUS41 KLWX 050724
MTRNAK
SPECI KNAK 050723Z AUTO 29003KT 2 1/2SM -RA BR SCT007 BKN014 OVC042
04/04 A2998 RMK AO2 P0002 T00440039





000
SAUS41 KLWX 050717
MTRRYT
SPECI KRYT 050710Z AUTO 00000KT 3SM -SN BR SCT006 OVC010 02/M01
A2995 RMK AO2 P0002 $





000
SAUS41 KLWX 050717
MTRRYT
SPECI KRYT 050710Z AUTO 00000KT 3SM -SN BR SCT006 OVC010 02/M01
A2995 RMK AO2 P0002 $





000
SAUS41 KLWX 050711
MTRNAK
SPECI KNAK 050706Z AUTO 32004KT 1 3/4SM -RA BR BKN008 OVC013 04/04
A2998 RMK AO2 P0001 T00440039





000
SAUS41 KLWX 050711
MTRNAK
SPECI KNAK 050706Z AUTO 32004KT 1 3/4SM -RA BR BKN008 OVC013 04/04
A2998 RMK AO2 P0001 T00440039





000
SAUS41 KLWX 050707
MTRRYT
SPECI KRYT 050706Z AUTO 00000KT 2 1/2SM -SN BR OVC008 01/M01 A2995
RMK AO2 P0002 $





000
SAUS41 KLWX 050707
MTRRYT
SPECI KRYT 050706Z AUTO 00000KT 2 1/2SM -SN BR OVC008 01/M01 A2995
RMK AO2 P0002 $





000
SAUS41 KLWX 050700
MTRRYT
METAR KRYT 050653Z AUTO 00000KT 1SM -SN BR OVC006 01/M01 A2995 RMK
AO2 RAE05SNB05 SLP151 P0020 T00111006 $





000
SAUS41 KLWX 050700
MTRRYT
METAR KRYT 050653Z AUTO 00000KT 1SM -SN BR OVC006 01/M01 A2995 RMK
AO2 RAE05SNB05 SLP151 P0020 T00111006 $





000
SAUS41 KLWX 050659
MTRNAK
METAR KNAK 050654Z AUTO 31004KT 1 1/2SM -RA BR SCT007 OVC013 04/04
A2999 RMK AO2 SLP157 P0004 T00440039





000
SAUS41 KLWX 050659
MTRRSP
METAR KRSP 050654Z AUTO 1/4SM UP FZFG VV001 M01/M01 RMK AO2
UPB51SNE51 SLPNO P0017 T10061011 $





000
SAUS41 KLWX 050659 COR
MTRDMH
METAR KDMH 050654Z AUTO 06/03 A2998 RMK AO1 SLP152 P0002 T00560033





000
SAUS41 KLWX 050659
MTRNAK
METAR KNAK 050654Z AUTO 31004KT 1 1/2SM -RA BR SCT007 OVC013 04/04
A2999 RMK AO2 SLP157 P0004 T00440039





000
SAUS41 KLWX 050659 COR
MTRDMH
METAR KDMH 050654Z AUTO 06/03 A2998 RMK AO1 SLP152 P0002 T00560033





000
SAUS41 KLWX 050659
MTRRSP
METAR KRSP 050654Z AUTO 1/4SM UP FZFG VV001 M01/M01 RMK AO2
UPB51SNE51 SLPNO P0017 T10061011 $





000
SAUS41 KLWX 050652
MTRRYT
SPECI KRYT 050645Z AUTO 00000KT 3/4SM -SN BR OVC006 01/M01 A2994 RMK
AO2 RAE05SNB05 P0018 $





000
SAUS41 KLWX 050652
MTRRYT
SPECI KRYT 050645Z AUTO 00000KT 3/4SM -SN BR OVC006 01/M01 A2994 RMK
AO2 RAE05SNB05 P0018 $





000
SAUS41 KLWX 050634
MTRNAK
SPECI KNAK 050629Z AUTO 00000KT 3/4SM -RA BR BKN007 OVC012 04/03
A2997 RMK AO2 P0002 T00390033





000
SAUS41 KLWX 050634
MTRNAK
SPECI KNAK 050629Z AUTO 00000KT 3/4SM -RA BR BKN007 OVC012 04/03
A2997 RMK AO2 P0002 T00390033





000
SAUS41 KLWX 050626
MTRRYT
SPECI KRYT 050619Z AUTO 00000KT 1 3/4SM -SN BR BKN008 OVC016 02/00
A2996 RMK AO2 RAE05SNB05 P0005 $





000
SAUS41 KLWX 050626
MTRRYT
SPECI KRYT 050619Z AUTO 00000KT 1 3/4SM -SN BR BKN008 OVC016 02/00
A2996 RMK AO2 RAE05SNB05 P0005 $





000
SAUS41 KLWX 050616
MTRRYT
SPECI KRYT 050609Z AUTO 00000KT 2 1/2SM -SN BR SCT008 BKN012 OVC050
02/00 A2996 RMK AO2 RAE05SNB05 P0003 $





000
SAUS41 KLWX 050616
MTRRYT
SPECI KRYT 050609Z AUTO 00000KT 2 1/2SM -SN BR SCT008 BKN012 OVC050
02/00 A2996 RMK AO2 RAE05SNB05 P0003 $





000
SAUS41 KLWX 050608
MTRRYT
SPECI KRYT 050601Z AUTO 24003KT 3SM RA BR BKN012 BKN023 OVC050 02/00
A2995 RMK AO2 PRESRR P0002 $





000
SAUS41 KLWX 050608
MTRRYT
SPECI KRYT 050601Z AUTO 24003KT 3SM RA BR BKN012 BKN023 OVC050 02/00
A2995 RMK AO2 PRESRR P0002 $





000
SAUS41 KLWX 050600
MTRRYT
METAR KRYT 050553Z AUTO 00000KT 5SM -RA BR SCT014 BKN023 OVC050
02/00 A2994 RMK AO2 PRESRR SLP146 P0014 60059 T00220000 10056 20022
50005 $





000
SAUS41 KLWX 050600
MTRRYT
METAR KRYT 050553Z AUTO 00000KT 5SM -RA BR SCT014 BKN023 OVC050
02/00 A2994 RMK AO2 PRESRR SLP146 P0014 60059 T00220000 10056 20022
50005 $





000
SAUS41 KLWX 050559
MTRNAK
METAR KNAK 050554Z AUTO 35003KT 2SM -RA BR BKN008 OVC020 04/04 A2995
RMK AO2 SLP144 P0005 60024 T00440039 10050 20017 53003





000
SAUS41 KLWX 050559 COR
MTRDMH
METAR KDMH 050554Z AUTO 05/04 A2995 RMK AO1 SLP142 P0002 60035
T00500039 10061 20050 50006





000
SAUS41 KLWX 050559
MTRRSP
METAR KRSP 050554Z AUTO 1/2SM -SN FG VV001 00/M01 RMK AO2
UPB27E36FZRAB36E54SNE27B54 SLPNO P0012 60052 T00001006 10044 20000 $





000
SAUS41 KLWX 050559 COR
MTRDMH
METAR KDMH 050554Z AUTO 05/04 A2995 RMK AO1 SLP142 P0002 60035
T00500039 10061 20050 50006





000
SAUS41 KLWX 050559
MTRNAK
METAR KNAK 050554Z AUTO 35003KT 2SM -RA BR BKN008 OVC020 04/04 A2995
RMK AO2 SLP144 P0005 60024 T00440039 10050 20017 53003





000
SAUS41 KLWX 050559
MTRRSP
METAR KRSP 050554Z AUTO 1/2SM -SN FG VV001 00/M01 RMK AO2
UPB27E36FZRAB36E54SNE27B54 SLPNO P0012 60052 T00001006 10044 20000 $





000
SAUS41 KLWX 050554
MTRNAK
SPECI KNAK 050549Z AUTO 34003KT 2SM -RA BR BKN008 OVC018 04/03 A2995
RMK AO2 P0005





000
SAUS41 KLWX 050554
MTRNAK
SPECI KNAK 050549Z AUTO 34003KT 2SM -RA BR BKN008 OVC018 04/03 A2995
RMK AO2 P0005





000
SAUS41 KLWX 050541
MTRRSP
SPECI KRSP 050537Z AUTO 3/4SM -FZRA BR OVC001 00/M01 RMK AO2
UPB27E36FZRAB36SNE27 P0010 $





000
SAUS41 KLWX 050541
MTRRSP
SPECI KRSP 050537Z AUTO 3/4SM -FZRA BR OVC001 00/M01 RMK AO2
UPB27E36FZRAB36SNE27 P0010 $





000
SAUS41 KLWX 050539
MTRNAK
SPECI KNAK 050534Z AUTO 33004KT 2 1/2SM -RA BR SCT008 OVC017 04/03
A2995 RMK AO2 P0003 T00440033





000
SAUS41 KLWX 050539
MTRNAK
SPECI KNAK 050534Z AUTO 33004KT 2 1/2SM -RA BR SCT008 OVC017 04/03
A2995 RMK AO2 P0003 T00440033





000
SAUS41 KLWX 050533
MTRRSP
SPECI KRSP 050528Z AUTO 1SM UP BR OVC001 00/M01 RMK AO2 UPB27SNE27
P0009 $





000
SAUS41 KLWX 050529
MTRNAK
SPECI KNAK 050524Z AUTO 33004KT 3SM -RA BR BKN008 OVC018 04/04 A2995
RMK AO2 P0002 T00440039





000
SAUS41 KLWX 050529
MTRNAK
SPECI KNAK 050524Z AUTO 33004KT 3SM -RA BR BKN008 OVC018 04/04 A2995
RMK AO2 P0002 T00440039





000
SAUS41 KLWX 050521
MTRNAK
SPECI KNAK 050516Z AUTO 30003KT 3SM -RA BR SCT008 BKN018 05/04 A2996
RMK AO2 P0002 T00500044





000
SAUS41 KLWX 050521
MTRNAK
SPECI KNAK 050516Z AUTO 30003KT 3SM -RA BR SCT008 BKN018 05/04 A2996
RMK AO2 P0002 T00500044





000
SAUS41 KLWX 050500
MTRRYT
METAR KRYT 050453Z AUTO 00000KT 4SM -RA BR FEW018 BKN023 OVC070
03/01 A2994 RMK AO2 SLP147 P0009 T00280006 401110000 $





000
SAUS41 KLWX 050459
MTRNAK
METAR KNAK 050454Z AUTO 34003KT 3SM -RA BR BKN008 BKN016 OVC055
04/04 A2994 RMK AO2 SLP140 P0002 T00440039 400610017





000
SAUS41 KLWX 050459
MTRRSP
METAR KRSP 050454Z AUTO 1/4SM -SN FG VV001 01/M01 RMK AO2 RAE50SNB50
SLPNO P0008 T00061006 400940006 $





000
SAUS41 KLWX 050459
MTRRSP
METAR KRSP 050454Z AUTO 1/4SM -SN FG VV001 01/M01 RMK AO2 RAE50SNB50
SLPNO P0008 T00061006 400940006 $





000
SAUS41 KLWX 050459 COR
MTRDMH
METAR KDMH 050454Z AUTO 06/05 A2995 RMK AO1 SLP143 P0004 T00560050
400720011





000
SAUS41 KLWX 050459 COR
MTRDMH
METAR KDMH 050454Z AUTO 06/05 A2995 RMK AO1 SLP143 P0004 T00560050
400720011





000
SAUS41 KLWX 050459
MTRNAK
METAR KNAK 050454Z AUTO 34003KT 3SM -RA BR BKN008 BKN016 OVC055
04/04 A2994 RMK AO2 SLP140 P0002 T00440039 400610017





000
SAUS41 KLWX 050450
MTRRYT
SPECI KRYT 050443Z AUTO 00000KT 4SM -RA BKN021 OVC055 03/00 A2994
RMK AO2 P0007 $





000
SAUS41 KLWX 050439
MTRRYT
SPECI KRYT 050432Z AUTO VRB03KT 5SM -RA SCT017 BKN049 OVC070 03/01
A2994 RMK AO2 P0005 $





000
SAUS41 KLWX 050432
MTRRYT
SPECI KRYT 050425Z AUTO 00000KT 6SM -RA BR SCT017 BKN025 OVC070
03/01 A2993 RMK AO2 P0004 $





000
SAUS41 KLWX 050432
MTRRYT
SPECI KRYT 050425Z AUTO 00000KT 6SM -RA BR SCT017 BKN025 OVC070
03/01 A2993 RMK AO2 P0004 $





000
SAUS41 KLWX 050429
MTRNAK
SPECI KNAK 050424Z AUTO 35005KT 3SM -RA BR BKN007 OVC028 04/04 A2994
RMK AO2 P0001 T00440039





000
SAUS41 KLWX 050413
MTRRSP
SPECI KRSP 050408Z AUTO 3/4SM -RA BR BKN003 OVC011 01/00 RMK AO2
P0002 $





000
SAUS41 KLWX 050400
MTRRYT
METAR KRYT 050353Z AUTO 00000KT 4SM -RA BR FEW011 BKN050 OVC065
04/02 A2994 RMK AO2 SLP143 P0008 T00390017 $





000
SAUS41 KLWX 050400
MTRRYT
METAR KRYT 050353Z AUTO 00000KT 4SM -RA BR FEW011 BKN050 OVC065
04/02 A2994 RMK AO2 SLP143 P0008 T00390017 $





000
SAUS41 KLWX 050359
MTRNAK
METAR KNAK 050354Z AUTO 34005KT 4SM -RA BR SCT008 BKN028 OVC055
04/04 A2994 RMK AO2 SLP141 P0006 T00440039





000
SAUS41 KLWX 050359
MTRRSP
METAR KRSP 050354Z AUTO 2 1/2SM -RA BR BKN003 OVC055 01/00 RMK AO2
SLPNO P0007 T00110000 $





000
SAUS41 KLWX 050359 COR
MTRDMH
METAR KDMH 050354Z AUTO 06/04 A2996 RMK AO1 SLP144 P0006 T00560044





000
SAUS41 KLWX 050359
MTRRSP
METAR KRSP 050354Z AUTO 2 1/2SM -RA BR BKN003 OVC055 01/00 RMK AO2
SLPNO P0007 T00110000 $





000
SAUS41 KLWX 050353
MTRRYT
SPECI KRYT 050346Z AUTO 00000KT 4SM -RA BR SCT011 BKN055 OVC065
04/02 A2994 RMK AO2 P0007 $





000
SAUS41 KLWX 050345
MTRNAK
SPECI KNAK 050340Z AUTO 32006KT 4SM -RA BR SCT006 SCT024 OVC046
04/03 A2994 RMK AO2 P0005 T00390033





000
SAUS41 KLWX 050337
MTRNAK
SPECI KNAK 050332Z AUTO 32006KT 4SM -RA BR BKN006 BKN022 OVC043
04/03 A2994 RMK AO2 P0004 T00390033





000
SAUS41 KLWX 050337
MTRNAK
SPECI KNAK 050332Z AUTO 32006KT 4SM -RA BR BKN006 BKN022 OVC043
04/03 A2994 RMK AO2 P0004 T00390033





000
SAUS41 KLWX 050325
MTRNAK
SPECI KNAK 050320Z AUTO 35006KT 3SM -RA BR SCT007 BKN023 OVC040
03/03 A2993 RMK AO2 P0003 T00330028





000
SAUS41 KLWX 050325
MTRNAK
SPECI KNAK 050320Z AUTO 35006KT 3SM -RA BR SCT007 BKN023 OVC040
03/03 A2993 RMK AO2 P0003 T00330028





000
SAUS41 KLWX 050316
MTRRYT
SPECI KRYT 050309Z AUTO 00000KT 5SM -RA BR BKN011 OVC065 04/02 A2993
RMK AO2 P0002 $





000
SAUS41 KLWX 050312
MTRRSP
SPECI KRSP 050306Z AUTO 4SM -RA BR SCT004 OVC055 02/00 RMK AO2 P0001
$





000
SAUS41 KLWX 050300
MTRRYT
METAR KRYT 050253Z AUTO 00000KT 4SM RA BR FEW011 OVC060 04/02 A2993
RMK AO2 SLP141 P0010 60028 T00440022 53020 $





000
SAUS41 KLWX 050259
MTRNAK
METAR KNAK 050254Z AUTO 32003KT 6SM -RA BR BKN006 OVC018 04/03 A2994
RMK AO2 PRESRR SLP142 P0004 60011 T00390033 51020





000
SAUS41 KLWX 050259
MTRRSP
METAR KRSP 050254Z AUTO 3SM -RA BR BKN002 OVC050 02/01 RMK AO2 SLPNO
P0009 60025 T00170006 $





000
SAUS41 KLWX 050259 COR
MTRDMH
METAR KDMH 050254Z AUTO 06/05 A2994 RMK AO1 SLP136 P0007 60023
T00560050 50016





000
SAUS41 KLWX 050259 COR
MTRDMH
METAR KDMH 050254Z AUTO 06/05 A2994 RMK AO1 SLP136 P0007 60023
T00560050 50016





000
SAUS41 KLWX 050259
MTRRSP
METAR KRSP 050254Z AUTO 3SM -RA BR BKN002 OVC050 02/01 RMK AO2 SLPNO
P0009 60025 T00170006 $





000
SAUS41 KLWX 050259
MTRNAK
METAR KNAK 050254Z AUTO 32003KT 6SM -RA BR BKN006 OVC018 04/03 A2994
RMK AO2 PRESRR SLP142 P0004 60011 T00390033 51020





000
SAUS41 KLWX 050257
MTRRSP
SPECI KRSP 050252Z AUTO 3SM -RA BR BKN002 OVC050 02/01 RMK AO2 P0009
$





000
SAUS41 KLWX 050247
MTRNAK
SPECI KNAK 050242Z AUTO 34005KT 3SM -RA BR BKN007 OVC016 03/03 A2992
RMK AO2 P0004 T00330028





000
SAUS41 KLWX 050239
MTRRSP
SPECI KRSP 050234Z AUTO 2SM -RA BR BKN002 OVC055 02/02 RMK AO2 P0006
$





000
SAUS41 KLWX 050232
MTRNAK
SPECI KNAK 050227Z AUTO 32004KT 3SM -RA BR SCT007 OVC016 04/03 A2993
RMK AO2 P0003 T00390033





000
SAUS41 KLWX 050229
MTRRSP
SPECI KRSP 050224Z AUTO 3SM -RA BR SCT004 OVC060 02/02 RMK AO2 P0004
$





000
SAUS41 KLWX 050223
MTRNAK
SPECI KNAK 050218Z AUTO 32004KT 3SM -RA BR BKN007 OVC014 04/04 A2993
RMK AO2 P0002 T00390039





000
SAUS41 KLWX 050200
MTRRYT
METAR KRYT 050153Z AUTO 00000KT 8SM -RA OVC070 06/04 A2989 RMK AO2
SLP129 P0011 T00560039 $





000
SAUS41 KLWX 050200
MTRRYT
METAR KRYT 050153Z AUTO 00000KT 8SM -RA OVC070 06/04 A2989 RMK AO2
SLP129 P0011 T00560039 $





000
SAUS41 KLWX 050159 COR
MTRDMH
METAR KDMH 050154Z AUTO 06/05 A2995 RMK AO1 SLP142 P0010 T00610050





000
SAUS41 KLWX 050159
MTRNAK
METAR KNAK 050154Z AUTO 32005KT 3/4SM -RA BR BKN008 OVC012 03/02
A2993 RMK AO2 SLP137 P0006 T00330022





000
SAUS41 KLWX 050159
MTRRSP
METAR KRSP 050154Z AUTO 5SM -RA BR OVC060 03/02 RMK AO2 SLPNO P0007
T00280017 $





000
SAUS41 KLWX 050159
MTRRSP
METAR KRSP 050154Z AUTO 5SM -RA BR OVC060 03/02 RMK AO2 SLPNO P0007
T00280017 $





000
SAUS41 KLWX 050159
MTRNAK
METAR KNAK 050154Z AUTO 32005KT 3/4SM -RA BR BKN008 OVC012 03/02
A2993 RMK AO2 SLP137 P0006 T00330022





000
SAUS41 KLWX 050159 COR
MTRDMH
METAR KDMH 050154Z AUTO 06/05 A2995 RMK AO1 SLP142 P0010 T00610050





000
SAUS41 KLWX 050149
MTRNAK
SPECI KNAK 050144Z AUTO 32003KT 3/4SM -RA BR FEW007 OVC012 03/03
A2993 RMK AO2 P0004 T00330033





000
SAUS41 KLWX 050149
MTRNAK
SPECI KNAK 050144Z AUTO 32003KT 3/4SM -RA BR FEW007 OVC012 03/03
A2993 RMK AO2 P0004 T00330033





000
SAUS41 KLWX 050136
MTRNAK
SPECI KNAK 050135Z AUTO 30003KT 3/4SM -RA BR BKN007 OVC012 03/03
A2992 RMK AO2 P0003 T00330028





000
SAUS41 KLWX 050115
MTRRSP
SPECI KRSP 050110Z AUTO 3SM -RA BR OVC055 03/02 RMK AO2 P0003 $





000
SAUS41 KLWX 050110
MTRNAK
SPECI KNAK 050105Z AUTO 32003KT 1SM -RA BR VV008 02/01 A2992 RMK AO2
P0000 T00170011





000
SAUS41 KLWX 050100
MTRRYT
METAR KRYT 050053Z AUTO 00000KT 3SM -RA BR FEW019 SCT026 OVC055
05/04 A2990 RMK AO2 SLP132 P0007 T00500039 $





000
SAUS41 KLWX 050100
MTRRYT
METAR KRYT 050053Z AUTO 00000KT 3SM -RA BR FEW019 SCT026 OVC055
05/04 A2990 RMK AO2 SLP132 P0007 T00500039 $





000
SAUS41 KLWX 050059
MTRRSP
METAR KRSP 050054Z AUTO 2SM RA BR FEW013 OVC046 03/02 RMK AO2 SLPNO
P0009 T00330022 $





000
SAUS41 KLWX 050059 COR
MTRDMH
METAR KDMH 050054Z AUTO 06/04 A2991 RMK AO1 SLP128 P0006 T00560044





000
SAUS41 KLWX 050059
MTRNAK
METAR KNAK 050054Z AUTO 33003KT 3/4SM -RA BR VV007 02/01 A2991 RMK
AO2 SLP129 P0001 T00220011





000
SAUS41 KLWX 050059
MTRNAK
METAR KNAK 050054Z AUTO 33003KT 3/4SM -RA BR VV007 02/01 A2991 RMK
AO2 SLP129 P0001 T00220011





000
SAUS41 KLWX 050059 COR
MTRDMH
METAR KDMH 050054Z AUTO 06/04 A2991 RMK AO1 SLP128 P0006 T00560044





000
SAUS41 KLWX 050059
MTRRSP
METAR KRSP 050054Z AUTO 2SM RA BR FEW013 OVC046 03/02 RMK AO2 SLPNO
P0009 T00330022 $





000
SAUS41 KLWX 050052
MTRRSP
SPECI KRSP 050047Z AUTO 2 1/2SM RA BR SCT011 OVC042 04/03 RMK AO2
P0007 $





000
SAUS41 KLWX 050052
MTRRSP
SPECI KRSP 050047Z AUTO 2 1/2SM RA BR SCT011 OVC042 04/03 RMK AO2
P0007 $





000
SAUS41 KLWX 050045
MTRRSP
SPECI KRSP 050040Z AUTO 2SM RA BR BKN011 OVC039 03/03 RMK AO2 P0006
$





000
SAUS41 KLWX 050043
MTRRYT
SPECI KRYT 050036Z AUTO 00000KT 1 1/4SM -RA BR FEW002 BKN024 OVC040
04/03 A2990 RMK AO2 P0004 $





000
SAUS41 KLWX 050031
MTRRYT
SPECI KRYT 050024Z AUTO 00000KT 2SM -RA BR FEW002 OVC022 04/03 A2989
RMK AO2 P0002 $





000
SAUS41 KLWX 050027
MTRRSP
SPECI KRSP 050022Z AUTO 1 3/4SM -RA BR OVC011 04/03 RMK AO2 P0002 $





000
SAUS41 KLWX 050027
MTRRSP
SPECI KRSP 050022Z AUTO 1 3/4SM -RA BR OVC011 04/03 RMK AO2 P0002 $





000
SAUS41 KLWX 050020
MTRRYT
SPECI KRYT 050013Z AUTO 00000KT 1 1/2SM -RA BR FEW002 OVC022 04/03
A2988 RMK AO2 P0001 $





000
SAUS41 KLWX 050020
MTRRYT
SPECI KRYT 050013Z AUTO 00000KT 1 1/2SM -RA BR FEW002 OVC022 04/03
A2988 RMK AO2 P0001 $





000
SAUS41 KLWX 050019
MTRRSP
SPECI KRSP 050014Z AUTO 5SM -RA BR OVC011 04/03 RMK AO2 CIG 008V013
P0001 $





000
SAUS41 KLWX 050019
MTRRSP
SPECI KRSP 050014Z AUTO 5SM -RA BR OVC011 04/03 RMK AO2 CIG 008V013
P0001 $





000
SAUS41 KLWX 050009
MTRRYT
SPECI KRYT 050002Z AUTO 00000KT 2 1/2SM -RA BR FEW002 OVC020 04/04
A2988 RMK AO2 P0000 $





000
SAUS41 KLWX 050008
MTRNAK
SPECI KNAK 050002Z AUTO 00000KT 1/2SM -RA FG VV008 03/02 A2989 RMK
AO2 P0000 T00280022





000
SAUS41 KLWX 050008
MTRNAK
SPECI KNAK 050002Z AUTO 00000KT 1/2SM -RA FG VV008 03/02 A2989 RMK
AO2 P0000 T00280022





000
SAUS41 KLWX 050000
MTRRYT
METAR KRYT 042353Z AUTO 00000KT 1 1/4SM -RA BR FEW002 OVC018 04/03
A2987 RMK AO2 SLP123 P0000 60008 T00440033 10106 20039 51006 $





000
SAUS41 KLWX 042359
MTRRSP
METAR KRSP 042354Z AUTO 3SM -RA BR OVC007 04/03 RMK AO2 CIG 005V010
SLPNO P0001 60014 T00390033 10089 20039 $





000
SAUS41 KLWX 042359
MTRNAK
METAR KNAK 042354Z AUTO 00000KT 3/4SM -RA BR FEW005 OVC013 03/03
A2989 RMK AO2 SLP122 P0003 60005 T00330028 10044 20017 50000





000
SAUS41 KLWX 042359 COR
MTRDMH
METAR KDMH 042354Z AUTO 05/04 A2989 RMK AO1 SLP121 P0002 60013
T00500044 10072 20050 55003





000
SAUS41 KLWX 042359
MTRNAK
METAR KNAK 042354Z AUTO 00000KT 3/4SM -RA BR FEW005 OVC013 03/03
A2989 RMK AO2 SLP122 P0003 60005 T00330028 10044 20017 50000





000
SAUS41 KLWX 042359
MTRRSP
METAR KRSP 042354Z AUTO 3SM -RA BR OVC007 04/03 RMK AO2 CIG 005V010
SLPNO P0001 60014 T00390033 10089 20039 $





000
SAUS41 KLWX 042348
MTRRYT
SPECI KRYT 042341Z AUTO 00000KT 1 1/4SM -RA BR OVC018 05/03 A2987
RMK AO2 P0000 $





000
SAUS41 KLWX 042348
MTRRYT
SPECI KRYT 042341Z AUTO 00000KT 1 1/4SM -RA BR OVC018 05/03 A2987
RMK AO2 P0000 $





000
SAUS41 KLWX 042334
MTRRSP
SPECI KRSP 042329Z AUTO 3SM -RA BR OVC005 04/03 RMK AO2 P0001 $





000
SAUS41 KLWX 042334
MTRRYT
SPECI KRYT 042327Z AUTO 00000KT 2SM -RA BR OVC016 04/03 A2987 RMK
AO2 P0000 $





000
SAUS41 KLWX 042334
MTRRSP
SPECI KRSP 042329Z AUTO 3SM -RA BR OVC005 04/03 RMK AO2 P0001 $





000
SAUS41 KLWX 042328
MTRRSP
SPECI KRSP 042323Z AUTO 2SM -RA BR OVC003 04/04 RMK AO2 VIS 1V4
P0001 $





000
SAUS41 KLWX 042322
MTRNAK
SPECI KNAK 042317Z AUTO 00000KT 3/4SM -RA BR FEW004 BKN020 OVC075
03/02 A2990 RMK AO2 P0001 T00280022





000
SAUS41 KLWX 042319
MTRRYT
SPECI KRYT 042318Z AUTO 00000KT 3SM -RA BR FEW004 OVC016 04/03 A2987
RMK AO2 P0000 $





000
SAUS41 KLWX 042319
MTRRYT
SPECI KRYT 042318Z AUTO 00000KT 3SM -RA BR FEW004 OVC016 04/03 A2987
RMK AO2 P0000 $





000
SAUS41 KLWX 042311
MTRNAK
SPECI KNAK 042306Z AUTO 00000KT 3/4SM -RA BR SCT016 OVC075 03/02
A2990 RMK AO2 P0001 T00330022





000
SAUS41 KLWX 042311
MTRNAK
SPECI KNAK 042306Z AUTO 00000KT 3/4SM -RA BR SCT016 OVC075 03/02
A2990 RMK AO2 P0001 T00330022





000
SAUS41 KLWX 042310
MTRRYT
SPECI KRYT 042303Z AUTO 00000KT 1 1/4SM -RA BR SCT004 OVC014 04/03
A2987 RMK AO2 P0000 $





000
SAUS41 KLWX 042310
MTRRYT
SPECI KRYT 042303Z AUTO 00000KT 1 1/4SM -RA BR SCT004 OVC014 04/03
A2987 RMK AO2 P0000 $





000
SAUS41 KLWX 042259 COR
MTRDMH
METAR KDMH 042254Z AUTO 05/04 A2989 RMK AO1 SLP121 P0003 T00500044





000
SAUS41 KLWX 042259
MTRNAK
METAR KNAK 042254Z AUTO 00000KT 1/2SM -RA FG FEW009 OVC014 03/03
A2989 RMK AO2 SLP124 P0002 T00330028





000
SAUS41 KLWX 042258
MTRRSP
METAR KRSP 042254Z AUTO 1/4SM -RA FG VV001 06/05 RMK AO2 SLPNO P0003
T00560050 $





000
SAUS41 KLWX 042238
MTRNAK
SPECI KNAK 042233Z AUTO 00000KT 1/4SM -RA FG VV011 03/02 A2990 RMK
AO2 P0001 T00280022





000
SAUS41 KLWX 042230
MTRNAK
SPECI KNAK 042225Z AUTO 00000KT 1/4SM -RA FG VV009 04/03 A2990 RMK
AO2 P0001 T00390028





000
SAUS41 KLWX 042200
MTRRYT
METAR KRYT 042153Z AUTO 00000KT 1/4SM -RA FG VV005 06/04 A2985 RMK
AO2 SLP115 P0002 T00560044 $





000
SAUS41 KLWX 042159
MTRNAK
METAR KNAK 042154Z AUTO 00000KT 1/4SM -RA FG OVC009 03/03 A2990 RMK
AO2 RAE25B31 SLP127 P0000 T00330028





000
SAUS41 KLWX 042159 COR
MTRDMH
METAR KDMH 042154Z AUTO 07/06 A2989 RMK AO1 SLP120 P0003 T00670056





000
SAUS41 KLWX 042159
MTRRSP
METAR KRSP 042154Z AUTO 1/2SM -RA FG BKN004 OVC007 07/06 RMK AO2
SLPNO P0004 T00670056 $





000
SAUS41 KLWX 042151
MTRRSP
SPECI KRSP 042147Z AUTO 3/4SM -RA BR BKN004 OVC011 07/06 RMK AO2 CIG
003V008 P0003 $





000
SAUS41 KLWX 042145
MTRRYT
SPECI KRYT 042138Z AUTO 00000KT 1/4SM -RA FG BKN005 BKN011 OVC017
06/04 A2985 RMK AO2 P0002 $





000
SAUS41 KLWX 042141
MTRRSP
SPECI KRSP 042137Z AUTO 1 3/4SM -RA BR BKN007 OVC013 07/06 RMK AO2
P0002 $





000
SAUS41 KLWX 042134
MTRNAK
SPECI KNAK 042129Z AUTO 00000KT 1/4SM FG OVC008 03/03 A2989 RMK AO2
RAE25 P0000 T00330028





000
SAUS41 KLWX 042132
MTRRYT
SPECI KRYT 042125Z AUTO 00000KT 2 1/2SM -RA BR BKN017 OVC034 06/04
A2985 RMK AO2 VIS 1 1/2V4 P0001 $





000
SAUS41 KLWX 042128
MTRRSP
SPECI KRSP 042124Z AUTO 2 1/2SM -RA BR FEW008 BKN011 OVC037 07/06
RMK AO2 VIS 1 1/2V3 P0001 $





000
SAUS41 KLWX 042123
MTRNAK
SPECI KNAK 042118Z AUTO 00000KT 3/4SM -RA BR OVC009 04/03 A2989 RMK
AO2 P0000 T00390028





000
SAUS41 KLWX 042118
MTRRSP
SPECI KRSP 042113Z AUTO 3SM -RA BR BKN012 BKN017 OVC049 07/06 RMK
AO2 P0001 $





000
SAUS41 KLWX 042118
MTRNAK
SPECI KNAK 042113Z AUTO 00000KT 2SM -RA BR OVC009 04/03 A2989 RMK
AO2 P0000 T00390033





000
SAUS41 KLWX 042107
MTRRYT
SPECI KRYT 042106Z AUTO 00000KT 5SM -RA BR SCT021 BKN028 OVC055
06/04 A2985 RMK AO2 P0001 $





000
SAUS41 KLWX 042106
MTRRSP
SPECI KRSP 042102Z AUTO 3SM -RA BR SCT016 BKN038 OVC070 07/06 RMK
AO2 P0001 $





000
SAUS41 KLWX 042100
MTRRYT
METAR KRYT 042053Z AUTO 00000KT 4SM -RA BR SCT027 BKN055 OVC070
06/05 A2985 RMK AO2 SLP115 P0003 60005 T00610050 53010 $





000
SAUS41 KLWX 042059 COR
MTRDMH
METAR KDMH 042054Z AUTO 07/06 A2990 RMK AO1 SLP124 P0003 60005
T00670056 53007





000
SAUS41 KLWX 042059
MTRNAK
METAR KNAK 042054Z AUTO 00000KT 1 1/4SM -RA BR OVC009 03/03 A2989
RMK AO2 UPE1957RAB1957E38B54 SLP122 P0000 60000 T00330028 50008





000
SAUS41 KLWX 042059
MTRRSP
METAR KRSP 042054Z AUTO 2 1/2SM -RA BR FEW018 BKN060 OVC075 07/06
RMK AO2 VIS 1 3/4V4 SLPNO P0004 60006 T00720056 $





000
SAUS41 KLWX 042054
MTRNAK
SPECI KNAK 042049Z AUTO 00000KT 2SM BR FEW005 BKN008 OVC080 03/03
A2989 RMK AO2 UPE1957RAB1957E38 P0000





000
SAUS41 KLWX 042044
MTRNAK
SPECI KNAK 042039Z AUTO 00000KT 1SM BR BKN008 OVC080 03/03 A2989 RMK
AO2 UPE1957RAB1957E38 P0000 T00330028





000
SAUS41 KLWX 042044
MTRNAK
SPECI KNAK 042039Z AUTO 00000KT 1SM BR BKN008 OVC080 03/03 A2989 RMK
AO2 UPE1957RAB1957E38 P0000 T00330028





000
SAUS41 KLWX 042031
MTRNAK
SPECI KNAK 042026Z AUTO 07003KT 1/2SM -RA FG FEW006 BKN080 OVC090
02/02 A2987 RMK AO2 UPE1957RAB1957 P0000 T00220017





000
SAUS41 KLWX 042031
MTRNAK
SPECI KNAK 042026Z AUTO 07003KT 1/2SM -RA FG FEW006 BKN080 OVC090
02/02 A2987 RMK AO2 UPE1957RAB1957 P0000 T00220017





000
SAUS41 KLWX 042001 COR
MTRDMH
METAR KDMH 041954Z AUTO 07/06 A2988 RMK AO1 SLP117 P0002 T00720056





000
SAUS41 KLWX 042001 COR
MTRDMH
METAR KDMH 041954Z AUTO 07/06 A2988 RMK AO1 SLP117 P0002 T00720056





000
SAUS41 KLWX 042000
MTRRYT
METAR KRYT 041953Z AUTO 24003KT 8SM -RA SCT043 BKN055 OVC075 07/04
A2984 RMK AO2 RAB10 SLP114 P0002 T00670044 $





000
SAUS41 KLWX 042000 COR
MTRDMH
METAR KDMH 041954Z AUTO 07/06 A2988 RMK AO1 SLP117 P0002 T00720056





000
SAUS41 KLWX 042000 COR
MTRDMH
METAR KDMH 041954Z AUTO 07/06 A2988 RMK AO1 SLP117 P0002 T00720056





000
SAUS41 KLWX 042000
MTRRYT
METAR KRYT 041953Z AUTO 24003KT 8SM -RA SCT043 BKN055 OVC075 07/04
A2984 RMK AO2 RAB10 SLP114 P0002 T00670044 $





000
SAUS41 KLWX 041959 COR
MTRDMH
METAR KDMH 041954Z AUTO 07/06 A2988 RMK AO1 SLP117 P0002 T00720056





000
SAUS41 KLWX 041959
MTRNAK
METAR KNAK 041954Z AUTO 13007KT 1/4SM UP FG OVC085 02/02 A2987 RMK
AO2 UPB54 SLP117 P0000 T00220017





000
SAUS41 KLWX 041959 COR
MTRDMH
METAR KDMH 041954Z AUTO 07/06 A2988 RMK AO1 SLP117 P0002 T00720056





000
SAUS41 KLWX 041959
MTRNAK
METAR KNAK 041954Z AUTO 13007KT 1/4SM UP FG OVC085 02/02 A2987 RMK
AO2 UPB54 SLP117 P0000 T00220017





000
SAUS41 KLWX 041958
MTRRSP
METAR KRSP 041954Z AUTO 4SM -RA BR SCT035 BKN043 OVC070 07/05 RMK
AO2 RAB15 SLPNO P0002 T00670050 $





000
SAUS41 KLWX 041958
MTRRSP
METAR KRSP 041954Z AUTO 4SM -RA BR SCT035 BKN043 OVC070 07/05 RMK
AO2 RAB15 SLPNO P0002 T00670050 $





000
SAUS41 KLWX 041942 COR
MTRNAK
SPECI KNAK 041936Z AUTO 13005KT 3/4SM BR SCT010 OVC085 02/02 A2987
RMK AO2 T00220017





000
SAUS41 KLWX 041942 COR
MTRNAK
SPECI KNAK 041936Z AUTO 13005KT 3/4SM BR SCT010 OVC085 02/02 A2987
RMK AO2 T00220017





000
SAUS41 KLWX 041919
MTRNAK
SPECI KNAK 041914Z AUTO 12003KT 1/4SM FG SCT009 OVC080 03/03 A2987
RMK AO2 T00280028





000
SAUS41 KLWX 041919
MTRNAK
SPECI KNAK 041914Z AUTO 12003KT 1/4SM FG SCT009 OVC080 03/03 A2987
RMK AO2 T00280028





000
SAUS41 KLWX 041905
MTRNAK
SPECI KNAK 041904Z AUTO 13007KT 1/4SM FG OVC080 03/02 A2986 RMK AO2
T00280017





000
SAUS41 KLWX 041900
MTRRYT
METAR KRYT 041853Z AUTO 00000KT 10SM SCT085 OVC110 08/04 A2981 RMK
AO2 RAB35E46 SLP104 P0000 T00830039 $





000
SAUS41 KLWX 041859 COR
MTRDMH
METAR KDMH 041854Z AUTO 07/04 A2987 RMK AO1 SLP114 T00670044





000
SAUS41 KLWX 041858
MTRRSP
METAR KRSP 041854Z AUTO 10SM SCT080 OVC095 08/04 RMK AO2 SLPNO
T00830039 $





000
SAUS41 KLWX 041855
MTRNAK
METAR KNAK 041854Z AUTO 11003KT 3/4SM BR OVC080 02/02 A2986 RMK AO2
SLP113 T00220017





000
SAUS41 KLWX 041855
MTRNAK
METAR KNAK 041854Z AUTO 11003KT 3/4SM BR OVC080 02/02 A2986 RMK AO2
SLP113 T00220017





000
SAUS41 KLWX 041847
MTRNAK
SPECI KNAK 041842Z AUTO 14007KT 3/4SM BR FEW008 OVC080 02/02 A2985
RMK AO2 T00220017





000
SAUS41 KLWX 041847
MTRNAK
SPECI KNAK 041842Z AUTO 14007KT 3/4SM BR FEW008 OVC080 02/02 A2985
RMK AO2 T00220017





000
SAUS41 KLWX 041814
MTRNAK
SPECI KNAK 041809Z AUTO 13006KT 1/4SM FG FEW009 OVC080 03/02 A2987
RMK AO2 T00330022





000
SAUS41 KLWX 041800
MTRRYT
METAR KRYT 041753Z AUTO 00000KT 10SM OVC100 11/04 A2982 RMK AO2
SLP105 60002 T01060044 10111 20044 56019 $





000
SAUS41 KLWX 041800 COR
MTRDMH
METAR KDMH 041754Z AUTO 07/04 A2988 RMK AO1 SLP117 T00670044 10072
20039 58019





000
SAUS41 KLWX 041759
MTRNAK
METAR KNAK 041754Z AUTO 13005KT 3/4SM BR OVC080 03/02 A2988 RMK AO2
SLP121 60001 T00330022 10061 20017 58014





000
SAUS41 KLWX 041759
MTRRSP
METAR KRSP 041754Z AUTO 10SM OVC085 09/04 RMK AO2 SLPNO 60001
T00890039 10094 20056 $





000
SAUS41 KLWX 041746
MTRNAK
SPECI KNAK 041741Z AUTO 14004KT 1 3/4SM BR OVC080 04/03 A2990 RMK
AO2 T00390028





000
SAUS41 KLWX 041746
MTRNAK
SPECI KNAK 041741Z AUTO 14004KT 1 3/4SM BR OVC080 04/03 A2990 RMK
AO2 T00390028





000
SAUS41 KLWX 041722
MTRNAK
SPECI KNAK 041717Z AUTO 18006KT 4SM BR FEW008 OVC080 06/05 A2992 RMK
AO2 T00610050





000
SAUS41 KLWX 041722
MTRNAK
SPECI KNAK 041717Z AUTO 18006KT 4SM BR FEW008 OVC080 06/05 A2992 RMK
AO2 T00610050





000
SAUS41 KLWX 041708
MTRNAK
SPECI KNAK 041707Z AUTO 18008KT 2SM BR FEW008 OVC080 05/03 A2992 RMK
AO2 T00500033





000
SAUS41 KLWX 041700
MTRRYT
METAR KRYT 041653Z AUTO 26006KT 10SM BKN085 11/04 A2983 RMK AO2
SLP109 T01060044 $





000
SAUS41 KLWX 041659 COR
MTRDMH
METAR KDMH 041654Z AUTO 06/04 A2992 RMK AO1 SLP130 T00610039





000
SAUS41 KLWX 041659 COR
MTRNAK
METAR KNAK 041654Z AUTO 13006KT 1 1/4SM BR OVC080 02/02 A2992 RMK
AO2 RAE18B21E49 SLP133 P0000 T00220017





000
SAUS41 KLWX 041658
MTRRSP
METAR KRSP 041654Z AUTO 10SM OVC070 09/04 RMK AO2 SLPNO T00940039 $





000
SAUS41 KLWX 041658
MTRRSP
METAR KRSP 041654Z AUTO 10SM OVC070 09/04 RMK AO2 SLPNO T00940039 $





000
SAUS41 KLWX 041651
MTRNAK
SPECI KNAK 041646Z AUTO 15006KT 1SM -RA BR OVC080 02/02 A2992 RMK
AO2 RAE18B21 P0000 T00220017





000
SAUS41 KLWX 041633
MTRNAK
SPECI KNAK 041628Z AUTO 13005KT 1/2SM -RA FG OVC080 03/02 A2992 RMK
AO2 RAE18B21 P0000 T00280022





000
SAUS41 KLWX 041625
MTRNAK
SPECI KNAK 041619Z AUTO 13005KT 1 1/4SM BR OVC080 03/02 A2992 RMK
AO2 RAE18 P0000 T00280017





000
SAUS41 KLWX 041606
MTRNAK
SPECI KNAK 041601Z AUTO 00000KT 2SM -RA BR OVC075 03/03 A2993 RMK
AO2 P0000 T00330028





000
SAUS41 KLWX 041600
MTRRYT
METAR KRYT 041553Z AUTO 25006KT 10SM BKN080 10/04 A2986 RMK AO2
SLP121 T01000044 $





000
SAUS41 KLWX 041600
MTRRYT
METAR KRYT 041553Z AUTO 25006KT 10SM BKN080 10/04 A2986 RMK AO2
SLP121 T01000044 $





000
SAUS41 KLWX 041559 COR
MTRDMH
METAR KDMH 041554Z AUTO 06/04 A2993 RMK AO1 SLP134 T00610039





000
SAUS41 KLWX 041559
MTRNAK
METAR KNAK 041554Z AUTO 00000KT 1 3/4SM -RA BR OVC070 03/02 A2993
RMK AO2 RAE08B54 SLP136 P0001 T00280022





000
SAUS41 KLWX 041558
MTRRSP
METAR KRSP 041554Z AUTO 10SM SCT070 SCT090 09/04 RMK AO2 SLPNO
T00890039 $





000
SAUS41 KLWX 041558
MTRRSP
METAR KRSP 041554Z AUTO 10SM SCT070 SCT090 09/04 RMK AO2 SLPNO
T00890039 $





000
SAUS41 KLWX 041545
MTRNAK
SPECI KNAK 041540Z AUTO 12004KT 2SM BR OVC070 02/01 A2992 RMK AO2
RAE08 P0001 T00170006





000
SAUS41 KLWX 041500
MTRRYT
METAR KRYT 041453Z AUTO VRB03KT 10SM SCT065 BKN085 09/05 A2987 RMK
AO2 RAE03 SLP126 P0000 60002 T00890050 51018 $





000
SAUS41 KLWX 041459 COR
MTRDMH
METAR KDMH 041454Z AUTO 06/03 A2993 RMK AO1 SLP136 T00560033 50018





000
SAUS41 KLWX 041459
MTRRSP
METAR KRSP 041454Z AUTO 10SM SCT070 BKN090 07/04 RMK AO2 RAE18 SLPNO
P0000 60001 T00720039 $





000
SAUS41 KLWX 041459
MTRRSP
METAR KRSP 041454Z AUTO 10SM SCT070 BKN090 07/04 RMK AO2 RAE18 SLPNO
P0000 60001 T00720039 $





000
SAUS41 KLWX 041459
MTRNAK
METAR KNAK 041454Z AUTO 19004KT 5SM -RA BR BKN070 OVC100 06/04 A2994
RMK AO2 RAB35 SLP139 P0000 60000 T00610039 51022





000
SAUS41 KLWX 041459
MTRNAK
METAR KNAK 041454Z AUTO 19004KT 5SM -RA BR BKN070 OVC100 06/04 A2994
RMK AO2 RAB35 SLP139 P0000 60000 T00610039 51022





000
SAUS41 KLWX 041400
MTRRYT
METAR KRYT 041353Z AUTO 22005KT 10SM -RA OVC080 07/04 A2988 RMK AO2
RAB10 SLP128 P0002 T00720044 $





000
SAUS41 KLWX 041359
MTRNAK
METAR KNAK 041354Z AUTO 30005KT 4SM BR OVC075 04/03 A2994 RMK AO2
SLP139 T00390028





000
SAUS41 KLWX 041359 COR
MTRDMH
METAR KDMH 041354Z AUTO 05/03 A2995 RMK AO1 SLP140 T00500028





000
SAUS41 KLWX 041359 COR
MTRDMH
METAR KDMH 041354Z AUTO 05/03 A2995 RMK AO1 SLP140 T00500028





000
SAUS41 KLWX 041358
MTRRSP
METAR KRSP 041354Z AUTO 9SM -RA OVC070 06/04 RMK AO2 RAB10 SLPNO
P0001 T00560039 $





000
SAUS41 KLWX 041300
MTRRYT
METAR KRYT 041253Z AUTO VRB03KT 10SM OVC095 08/04 A2984 RMK AO2
SLP116 T00780044 $





000
SAUS41 KLWX 041259
MTRNAK
METAR KNAK 041254Z AUTO 00000KT 5SM BR OVC070 05/03 A2990 RMK AO2
RAB1156E15 SLP128 P0000 T00500033





000
SAUS41 KLWX 041259 COR
MTRDMH
METAR KDMH 041254Z AUTO 04/03 A2991 RMK AO1 SLP129 T00440028





000
SAUS41 KLWX 041258
MTRRSP
METAR KRSP 041254Z AUTO 10SM BKN075 OVC090 06/03 RMK AO2 SLPNO
T00560033 $





000
SAUS41 KLWX 041258
MTRRSP
METAR KRSP 041254Z AUTO 10SM BKN075 OVC090 06/03 RMK AO2 SLPNO
T00560033 $





000
SAUS41 KLWX 041202 COR
MTRDMH
METAR KDMH 041154Z AUTO 04/02 A2988 RMK AO1 SLP118 70013 T00390022
10039 20017 53017





000
SAUS41 KLWX 041200
MTRRYT
METAR KRYT 041153Z AUTO 00000KT 4SM BR FEW075 BKN090 OVC110 05/03
A2982 RMK AO2 SLP110 60004 70008 T00500033 10067 20000 51022 $





000
SAUS41 KLWX 041159
MTRNAK
METAR KNAK 041154Z AUTO 00000KT 7SM OVC070 04/03 A2987 RMK AO2
SLP117 60005 70019 T00440028 10050 20033 53015





000
SAUS41 KLWX 041158
MTRRSP
METAR KRSP 041154Z AUTO 10SM FEW055 BKN090 07/04 RMK AO2 SLPNO 60005
70007 T00670044 10083 20011 $





000
SAUS41 KLWX 041100
MTRRYT
METAR KRYT 041053Z AUTO 00000KT 6SM BR OVC080 06/04 A2980 RMK AO2
SLP104 T00560039 $





000
SAUS41 KLWX 041100
MTRRYT
METAR KRYT 041053Z AUTO 00000KT 6SM BR OVC080 06/04 A2980 RMK AO2
SLP104 T00560039 $





000
SAUS41 KLWX 041059
MTRNAK
METAR KNAK 041054Z AUTO 24004KT 6SM BR OVC065 04/02 A2986 RMK AO2
RAE02 SLP114 P0000 T00390022





000
SAUS41 KLWX 041059
MTRNAK
METAR KNAK 041054Z AUTO 24004KT 6SM BR OVC065 04/02 A2986 RMK AO2
RAE02 SLP114 P0000 T00390022





000
SAUS41 KLWX 041059 COR
MTRDMH
METAR KDMH 041054Z AUTO 03/02 A2985 RMK AO1 SLP109 T00330022





000
SAUS41 KLWX 041059 COR
MTRDMH
METAR KDMH 041054Z AUTO 03/02 A2985 RMK AO1 SLP109 T00330022





000
SAUS41 KLWX 041058
MTRRSP
METAR KRSP 041054Z AUTO 10SM FEW055 OVC070 08/06 RMK AO2 SLPNO
T00780056 $





000
SAUS41 KLWX 041058
MTRRSP
METAR KRSP 041054Z AUTO 10SM FEW055 OVC070 08/06 RMK AO2 SLPNO
T00780056 $





000
SAUS41 KLWX 041000
MTRRYT
METAR KRYT 040953Z AUTO 00000KT 5SM BR OVC085 05/04 A2978 RMK AO2
SLP096 T00500039 $





000
SAUS41 KLWX 041000
MTRRYT
METAR KRYT 040953Z AUTO 00000KT 5SM BR OVC085 05/04 A2978 RMK AO2
SLP096 T00500039 $





000
SAUS41 KLWX 040959
MTRRSP
METAR KRSP 040954Z AUTO 10SM OVC080 08/06 RMK AO2 SLPNO T00780061 $





000
SAUS41 KLWX 040959 COR
MTRDMH
METAR KDMH 040954Z AUTO 03/02 A2983 RMK AO1 SLP101 T00330017





000
SAUS41 KLWX 040959
MTRNAK
METAR KNAK 040954Z AUTO 00000KT 8SM -RA OVC060 04/03 A2983 RMK AO2
SLP103 P0005 T00390028





000
SAUS41 KLWX 040959
MTRNAK
METAR KNAK 040954Z AUTO 00000KT 8SM -RA OVC060 04/03 A2983 RMK AO2
SLP103 P0005 T00390028





000
SAUS41 KLWX 040959
MTRRSP
METAR KRSP 040954Z AUTO 10SM OVC080 08/06 RMK AO2 SLPNO T00780061 $





000
SAUS41 KLWX 040959 COR
MTRDMH
METAR KDMH 040954Z AUTO 03/02 A2983 RMK AO1 SLP101 T00330017





000
SAUS41 KLWX 040930
MTRNAK
SPECI KNAK 040925Z AUTO 18007KT 4SM -RA BR FEW022 BKN035 OVC048
04/02 A2982 RMK AO2 P0005 T00390022





000
SAUS41 KLWX 040923
MTRRSP
SPECI KRSP 040919Z AUTO 6SM BR FEW021 BKN070 OVC085 08/07 RMK AO2 $





000
SAUS41 KLWX 040921
MTRNAK
SPECI KNAK 040916Z AUTO 17005KT 2 1/2SM RA BR SCT022 BKN035 OVC055
04/02 A2983 RMK AO2 P0004 T00390022





000
SAUS41 KLWX 040911
MTRRSP
SPECI KRSP 040907Z AUTO 2 1/2SM BR FEW003 BKN075 OVC100 08/07 RMK
AO2 VIS 1 1/2V3 $





000
SAUS41 KLWX 040911
MTRRSP
SPECI KRSP 040907Z AUTO 2 1/2SM BR FEW003 BKN075 OVC100 08/07 RMK
AO2 VIS 1 1/2V3 $





000
SAUS41 KLWX 040908
MTRNAK
SPECI KNAK 040903Z AUTO VRB03KT 5SM -RA BR SCT020 BKN035 OVC060
04/02 A2984 RMK AO2 P0001 T00390022





000
SAUS41 KLWX 040900
MTRRYT
METAR KRYT 040853Z AUTO 00000KT 4SM BR SCT070 OVC090 04/03 A2975 RMK
AO2 RAE00B16E50 SLP088 P0000 60004 T00440028 55004 $





000
SAUS41 KLWX 040859 COR
MTRDMH
METAR KDMH 040854Z AUTO 03/02 A2983 RMK AO1 SLP101 T00330017 56000





000
SAUS41 KLWX 040859
MTRNAK
METAR KNAK 040854Z AUTO 19006KT 8SM -RA BKN019 BKN035 OVC060 04/02
A2983 RMK AO2 RAE02B52 SLP102 P0000 60000 T00390017 58002





000
SAUS41 KLWX 040858
MTRRSP
METAR KRSP 040854Z AUTO 2 1/2SM BR FEW021 BKN070 OVC095 07/07 RMK
AO2 VIS 1 1/4V4 RAB15E28 SLPNO P0000 60005 T00720067 $





000
SAUS41 KLWX 040858
MTRRSP
METAR KRSP 040854Z AUTO 2 1/2SM BR FEW021 BKN070 OVC095 07/07 RMK
AO2 VIS 1 1/4V4 RAB15E28 SLPNO P0000 60005 T00720067 $





000
SAUS41 KLWX 040855
MTRRSP
SPECI KRSP 040851Z AUTO 1 3/4SM BR FEW025 BKN060 OVC100 08/07 RMK
AO2 RAB15E28 P0000 $





000
SAUS41 KLWX 040855
MTRRSP
SPECI KRSP 040851Z AUTO 1 3/4SM BR FEW025 BKN060 OVC100 08/07 RMK
AO2 RAB15E28 P0000 $





000
SAUS41 KLWX 040842
MTRRYT
SPECI KRYT 040835Z AUTO 00000KT 3SM -RA BR OVC070 03/02 A2976 RMK
AO2 RAE00B16 P0000 $





000
SAUS41 KLWX 040842
MTRRYT
SPECI KRYT 040835Z AUTO 00000KT 3SM -RA BR OVC070 03/02 A2976 RMK
AO2 RAE00B16 P0000 $





000
SAUS41 KLWX 040828
MTRRYT
SPECI KRYT 040827Z AUTO 00000KT 2 1/2SM -RA BR BKN047 OVC070 01/M01
A2976 RMK AO2 RAE00B16 P0000 $





000
SAUS41 KLWX 040828
MTRRYT
SPECI KRYT 040827Z AUTO 00000KT 2 1/2SM -RA BR BKN047 OVC070 01/M01
A2976 RMK AO2 RAE00B16 P0000 $





000
SAUS41 KLWX 040820
MTRRYT
SPECI KRYT 040813Z AUTO 00000KT 1SM BR BKN030 OVC070 01/M01 A2976
RMK AO2 RAE00 P0000 $





000
SAUS41 KLWX 040813
MTRRYT
SPECI KRYT 040806Z AUTO 00000KT 3/4SM BR BKN021 OVC070 01/M01 A2976
RMK AO2 RAE00 P0000 $





000
SAUS41 KLWX 040807
MTRRSP
SPECI KRSP 040803Z AUTO 2 1/2SM BR FEW002 OVC055 06/06 RMK AO2 $





000
SAUS41 KLWX 040806
MTRNAK
SPECI KNAK 040801Z AUTO 32006KT 10SM -RA BKN016 BKN070 OVC085 04/02
A2984 RMK AO2 P0000 T00390017





000
SAUS41 KLWX 040806
MTRNAK
SPECI KNAK 040801Z AUTO 32006KT 10SM -RA BKN016 BKN070 OVC085 04/02
A2984 RMK AO2 P0000 T00390017





000
SAUS41 KLWX 040800
MTRRYT
METAR KRYT 040753Z AUTO 00000KT 3/4SM -RA BR BKN040 OVC070 01/M01
A2975 RMK AO2 RAE06B47 SLP090 P0000 T00061006 $





000
SAUS41 KLWX 040800
MTRRYT
METAR KRYT 040753Z AUTO 00000KT 3/4SM -RA BR BKN040 OVC070 01/M01
A2975 RMK AO2 RAE06B47 SLP090 P0000 T00061006 $





000
SAUS41 KLWX 040759 COR
MTRDMH
METAR KDMH 040754Z AUTO 03/01 A2984 RMK AO1 SLP103 T00330011





000
SAUS41 KLWX 040759
MTRNAK
METAR KNAK 040754Z AUTO 32007KT 10SM -RA SCT016 BKN070 OVC085 04/02
A2985 RMK AO2 RAB51 SLP109 P0000 T00440022





000
SAUS41 KLWX 040759
MTRNAK
METAR KNAK 040754Z AUTO 32007KT 10SM -RA SCT016 BKN070 OVC085 04/02
A2985 RMK AO2 RAB51 SLP109 P0000 T00440022





000
SAUS41 KLWX 040759
MTRRSP
METAR KRSP 040754Z AUTO 3SM BR OVC050 07/06 RMK AO2 SLPNO P0001
T00670056 $





000
SAUS41 KLWX 040759 COR
MTRDMH
METAR KDMH 040754Z AUTO 03/01 A2984 RMK AO1 SLP103 T00330011





000
SAUS41 KLWX 040759
MTRRSP
METAR KRSP 040754Z AUTO 3SM BR OVC050 07/06 RMK AO2 SLPNO P0001
T00670056 $





000
SAUS41 KLWX 040742
MTRRYT
SPECI KRYT 040735Z AUTO 00000KT 1/2SM FG OVC070 01/M01 A2975 RMK AO2
RAE06 P0000 $





000
SAUS41 KLWX 040742
MTRRYT
SPECI KRYT 040735Z AUTO 00000KT 1/2SM FG OVC070 01/M01 A2975 RMK AO2
RAE06 P0000 $





000
SAUS41 KLWX 040742
MTRRSP
SPECI KRSP 040737Z AUTO 3SM BR FEW002 OVC050 06/05 RMK AO2 P0001 $





000
SAUS41 KLWX 040742
MTRRSP
SPECI KRSP 040737Z AUTO 3SM BR FEW002 OVC050 06/05 RMK AO2 P0001 $





000
SAUS41 KLWX 040727
MTRRSP
SPECI KRSP 040723Z AUTO 2 1/2SM BR FEW002 SCT013 OVC048 06/04 RMK
AO2 P0001 $





000
SAUS41 KLWX 040727
MTRRSP
SPECI KRSP 040723Z AUTO 2 1/2SM BR FEW002 SCT013 OVC048 06/04 RMK
AO2 P0001 $





000
SAUS41 KLWX 040721
MTRRYT
SPECI KRYT 040714Z AUTO 00000KT 1 3/4SM BR SCT055 OVC070 01/00 A2976
RMK AO2 RAE06 P0000 $





000
SAUS41 KLWX 040721
MTRRYT
SPECI KRYT 040714Z AUTO 00000KT 1 3/4SM BR SCT055 OVC070 01/00 A2976
RMK AO2 RAE06 P0000 $





000
SAUS41 KLWX 040715
MTRRSP
SPECI KRSP 040710Z AUTO 2 1/2SM BR FEW002 BKN024 OVC048 05/04 RMK
AO2 P0001 $





000
SAUS41 KLWX 040715
MTRRSP
SPECI KRSP 040710Z AUTO 2 1/2SM BR FEW002 BKN024 OVC048 05/04 RMK
AO2 P0001 $





000
SAUS41 KLWX 040713
MTRRYT
SPECI KRYT 040706Z AUTO 00000KT 4SM BR BKN060 OVC075 02/00 A2976 RMK
AO2 RAE06 P0000 $





000
SAUS41 KLWX 040713
MTRRYT
SPECI KRYT 040706Z AUTO 00000KT 4SM BR BKN060 OVC075 02/00 A2976 RMK
AO2 RAE06 P0000 $





000
SAUS41 KLWX 040700
MTRRYT
METAR KRYT 040653Z AUTO 23003KT 2SM -RA BR FEW006 BKN055 OVC065
01/M01 A2977 RMK AO2 UPB02E12RAB12 SLP095 P0004 T00061006 $





000
SAUS41 KLWX 040700
MTRRYT
METAR KRYT 040653Z AUTO 23003KT 2SM -RA BR FEW006 BKN055 OVC065
01/M01 A2977 RMK AO2 UPB02E12RAB12 SLP095 P0004 T00061006 $





000
SAUS41 KLWX 040659
MTRNAK
METAR KNAK 040654Z AUTO 22004KT 10SM BKN110 04/03 A2982 RMK AO2
SLP101 T00440028





000
SAUS41 KLWX 040659 COR
MTRDMH
METAR KDMH 040654Z AUTO 03/01 A2982 RMK AO1 SLP097 T00280011





000
SAUS41 KLWX 040659
MTRNAK
METAR KNAK 040654Z AUTO 22004KT 10SM BKN110 04/03 A2982 RMK AO2
SLP101 T00440028





000
SAUS41 KLWX 040659 COR
MTRDMH
METAR KDMH 040654Z AUTO 03/01 A2982 RMK AO1 SLP097 T00280011





000
SAUS41 KLWX 040658
MTRRSP
METAR KRSP 040654Z AUTO 2 1/2SM BR FEW020 OVC048 04/03 RMK AO2
RAB03E46 SLPNO P0004 T00440033 $





000
SAUS41 KLWX 040658
MTRRSP
METAR KRSP 040654Z AUTO 2 1/2SM BR FEW020 OVC048 04/03 RMK AO2
RAB03E46 SLPNO P0004 T00440033 $





000
SAUS41 KLWX 040653
MTRRYT
SPECI KRYT 040646Z AUTO 00000KT 1 1/2SM -RA BR FEW006 BKN050 OVC065
01/M01 A2977 RMK AO2 UPB02E12RAB12 P0004 $





000
SAUS41 KLWX 040653
MTRRYT
SPECI KRYT 040646Z AUTO 00000KT 1 1/2SM -RA BR FEW006 BKN050 OVC065
01/M01 A2977 RMK AO2 UPB02E12RAB12 P0004 $





000
SAUS41 KLWX 040648
MTRRSP
SPECI KRSP 040643Z AUTO 3SM -RA BR FEW019 SCT024 OVC041 03/02 RMK
AO2 RAB03 P0004 $





000
SAUS41 KLWX 040648
MTRRSP
SPECI KRSP 040643Z AUTO 3SM -RA BR FEW019 SCT024 OVC041 03/02 RMK
AO2 RAB03 P0004 $





000
SAUS41 KLWX 040638
MTRRSP
SPECI KRSP 040633Z AUTO 2 1/2SM -RA BR SCT022 OVC027 02/01 RMK AO2
RAB03 P0004 $





000
SAUS41 KLWX 040638
MTRRSP
SPECI KRSP 040633Z AUTO 2 1/2SM -RA BR SCT022 OVC027 02/01 RMK AO2
RAB03 P0004 $





000
SAUS41 KLWX 040635
MTRRYT
SPECI KRYT 040628Z AUTO 00000KT 2SM -RA BR FEW006 BKN030 OVC035
02/01 A2979 RMK AO2 UPB02E12RAB12 P0003 $





000
SAUS41 KLWX 040635
MTRRYT
SPECI KRYT 040628Z AUTO 00000KT 2SM -RA BR FEW006 BKN030 OVC035
02/01 A2979 RMK AO2 UPB02E12RAB12 P0003 $





000
SAUS41 KLWX 040624
MTRRYT
SPECI KRYT 040623Z AUTO VRB03KT 1 3/4SM -RA BR BKN027 OVC035 02/01
A2979 RMK AO2 UPB02E12RAB12 P0003 $





000
SAUS41 KLWX 040624
MTRRYT
SPECI KRYT 040623Z AUTO VRB03KT 1 3/4SM -RA BR BKN027 OVC035 02/01
A2979 RMK AO2 UPB02E12RAB12 P0003 $





000
SAUS41 KLWX 040621
MTRRSP
SPECI KRSP 040616Z AUTO 1 3/4SM -RA BR BKN027 OVC034 01/00 RMK AO2
RAB03 P0002 $





000
SAUS41 KLWX 040621
MTRRSP
SPECI KRSP 040616Z AUTO 1 3/4SM -RA BR BKN027 OVC034 01/00 RMK AO2
RAB03 P0002 $





000
SAUS41 KLWX 040609
MTRRSP
SPECI KRSP 040605Z AUTO 4SM -RA BR BKN029 BKN047 OVC055 02/01 RMK
AO2 RAB03 P0000 $





000
SAUS41 KLWX 040600
MTRRYT
METAR KRYT 040553Z AUTO 00000KT 5SM BR OVC034 00/M02 A2976 RMK AO2
SLP095 60001 T00001017 10011 21011 56024 $





000
SAUS41 KLWX 040559
MTRNAK
METAR KNAK 040554Z AUTO 19005KT 10SM SCT070 04/02 A2983 RMK AO2
SLP104 60001 I6005 T00390022 10039 21006 56044





000
SAUS41 KLWX 040559 COR
MTRDMH
METAR KDMH 040554Z AUTO 02/00 A2983 RMK AO1 SLP101 60001 T00170000
10017 21006 58039





000
SAUS41 KLWX 040559
MTRNAK
METAR KNAK 040554Z AUTO 19005KT 10SM SCT070 04/02 A2983 RMK AO2
SLP104 60001 I6005 T00390022 10039 21006 56044





000
SAUS41 KLWX 040559 COR
MTRDMH
METAR KDMH 040554Z AUTO 02/00 A2983 RMK AO1 SLP101 60001 T00170000
10017 21006 58039





000
SAUS41 KLWX 040558
MTRRSP
METAR KRSP 040554Z AUTO 8SM FEW031 BKN041 OVC050 03/02 RMK AO2 SLPNO
60000 T00330017 10039 21022 $





000
SAUS41 KLWX 040558
MTRRSP
METAR KRSP 040554Z AUTO 8SM FEW031 BKN041 OVC050 03/02 RMK AO2 SLPNO
60000 T00330017 10039 21022 $





000
SAUS41 KLWX 040525
MTRNAK
SPECI KNAK 040520Z AUTO 20004KT 9SM SCT014 03/01 A2986 RMK AO2
T00280011





000
SAUS41 KLWX 040525
MTRNAK
SPECI KNAK 040520Z AUTO 20004KT 9SM SCT014 03/01 A2986 RMK AO2
T00280011





000
SAUS41 KLWX 040520
MTRRSP
SPECI KRSP 040516Z AUTO 9SM SCT030 BKN034 OVC040 03/01 RMK AO2 $





000
SAUS41 KLWX 040520
MTRRSP
SPECI KRSP 040516Z AUTO 9SM SCT030 BKN034 OVC040 03/01 RMK AO2 $





000
SAUS41 KLWX 040514
MTRNAK
SPECI KNAK 040509Z AUTO 19008KT 9SM BKN014 03/01 A2986 RMK AO2
T00280011





000
SAUS41 KLWX 040514
MTRNAK
SPECI KNAK 040509Z AUTO 19008KT 9SM BKN014 03/01 A2986 RMK AO2
T00280011





000
SAUS41 KLWX 040500
MTRRYT
METAR KRYT 040453Z AUTO 25003KT 5SM BR OVC034 00/M02 A2978 RMK AO2
UPB0356E08 SLP100 P0000 T00001017 400111056 $





000
SAUS41 KLWX 040459
MTRNAK
METAR KNAK 040454Z AUTO 18008KT 10SM BKN015 BKN070 03/01 A2987 RMK
AO2 SLP116 I1000 T00280006 400281022





000
SAUS41 KLWX 040459 COR
MTRDMH
METAR KDMH 040454Z AUTO 01/M01 A2987 RMK AO1 SLP115 T00111006
400111172





000
SAUS41 KLWX 040458
MTRRSP
METAR KRSP 040454Z AUTO 9SM OVC028 03/01 RMK AO2 SLPNO T00280006
400281072 $





000
SAUS41 KLWX 040449
MTRRSP
SPECI KRSP 040444Z AUTO 9SM OVC028 03/01 RMK AO2 $





000
SAUS41 KLWX 040422
MTRNAK
SPECI KNAK 040417Z AUTO 18007KT 10SM BKN016 02/M01 A2990 RMK AO2
I1000 T00171006





000
SAUS41 KLWX 040413
MTRNAK
SPECI KNAK 040408Z AUTO 18009G20KT 160V220 10SM SCT018 02/M01 A2991
RMK AO2 I1000 T00171006





000
SAUS41 KLWX 040413
MTRNAK
SPECI KNAK 040408Z AUTO 18009G20KT 160V220 10SM SCT018 02/M01 A2991
RMK AO2 I1000 T00171006





000
SAUS41 KLWX 040400
MTRRYT
METAR KRYT 040353Z AUTO 00000KT 6SM BR OVC036 00/M02 A2981 RMK AO2
SLP112 T00001022 $





000
SAUS41 KLWX 040359
MTRNAK
METAR KNAK 040354Z AUTO 19006KT 10SM BKN018 02/M01 A2991 RMK AO2
SLP131 I1003 T00171011





000
SAUS41 KLWX 040359 COR
MTRDMH
METAR KDMH 040354Z AUTO 01/M02 A2991 RMK AO1 SLP128 T00061017





000
SAUS41 KLWX 040359
MTRNAK
METAR KNAK 040354Z AUTO 19006KT 10SM BKN018 02/M01 A2991 RMK AO2
SLP131 I1003 T00171011





000
SAUS41 KLWX 040358
MTRRSP
METAR KRSP 040354Z AUTO 9SM OVC032 01/M02 RMK AO2 SLPNO T00111017 $





000
SAUS41 KLWX 040300
MTRRYT
METAR KRYT 040253Z AUTO 23004KT 10SM BKN038 OVC049 01/M03 A2984 RMK
AO2 UPE02B23E34 SLP121 P0001 60001 T00061033 56032 $





000
SAUS41 KLWX 040300
MTRRYT
METAR KRYT 040253Z AUTO 23004KT 10SM BKN038 OVC049 01/M03 A2984 RMK
AO2 UPE02B23E34 SLP121 P0001 60001 T00061033 56032 $





000
SAUS41 KLWX 040259
MTRNAK
METAR KNAK 040254Z AUTO 20005KT 9SM OVC019 01/M02 A2996 RMK AO2
SLP148 60001 I3002 T00061022 58039





000
SAUS41 KLWX 040259 COR
MTRDMH
METAR KDMH 040254Z AUTO 01/M02 A2995 RMK AO1 PRESFR SLP140 60001
T00061022 58043





000
SAUS41 KLWX 040258
MTRRSP
METAR KRSP 040254Z AUTO 10SM OVC030 01/M02 RMK AO2 SLPNO 60000
T00111022 $





000
SAUS41 KLWX 040200
MTRRYT
METAR KRYT 040153Z AUTO 24003KT 5SM UP BKN043 BKN055 OVC080 M01/M04
A2986 RMK AO2 UPE11B37 SLP131 P0000 T10061039 $





000
SAUS41 KLWX 040200
MTRRYT
METAR KRYT 040153Z AUTO 24003KT 5SM UP BKN043 BKN055 OVC080 M01/M04
A2986 RMK AO2 UPE11B37 SLP131 P0000 T10061039 $





000
SAUS41 KLWX 040159
MTRNAK
METAR KNAK 040154Z AUTO 17008KT 7SM OVC020 00/M02 A3000 RMK AO2
FZRAE09 SLP159 P0000 I1000 T00001022





000
SAUS41 KLWX 040159 COR
MTRDMH
METAR KDMH 040154Z AUTO 00/M02 A2999 RMK AO1 SLP154 T00001022





000
SAUS41 KLWX 040159
MTRNAK
METAR KNAK 040154Z AUTO 17008KT 7SM OVC020 00/M02 A3000 RMK AO2
FZRAE09 SLP159 P0000 I1000 T00001022





000
SAUS41 KLWX 040159 COR
MTRDMH
METAR KDMH 040154Z AUTO 00/M02 A2999 RMK AO1 SLP154 T00001022





000
SAUS41 KLWX 040158
MTRRSP
METAR KRSP 040154Z AUTO 10SM BKN032 OVC060 M01/M05 RMK AO2 UPE09
SLPNO P0000 T10111050 $





000
SAUS41 KLWX 040120
MTRNAK
SPECI KNAK 040115Z AUTO 16007KT 6SM BR OVC022 00/M02 A3003 RMK AO2
FZRAE09 PRESFR P0000 I1000 T00001017





000
SAUS41 KLWX 040101 COR
MTRDMH
METAR KDMH 040054Z AUTO 00/M02 A3004 RMK AO1 PRESFR SLP170 P0001
T00001022





000
SAUS41 KLWX 040101 COR
MTRDMH
METAR KDMH 040054Z AUTO 00/M02 A3004 RMK AO1 PRESFR SLP170 P0001
T00001022





000
SAUS41 KLWX 040100 COR
MTRDMH
METAR KDMH 040054Z AUTO 00/M02 A3004 RMK AO1 PRESFR SLP170 P0001
T00001022





000
SAUS41 KLWX 040100 COR
MTRDMH
METAR KDMH 040054Z AUTO 00/M02 A3004 RMK AO1 PRESFR SLP170 P0001
T00001022





000
SAUS41 KLWX 040100
MTRRYT
METAR KRYT 040053Z AUTO 23004KT 9SM UP SCT039 BKN060 OVC090 M01/M06
A2989 RMK AO2 UPB52 SLP142 P0000 T10111056 $





000
SAUS41 KLWX 040100
MTRRYT
METAR KRYT 040053Z AUTO 23004KT 9SM UP SCT039 BKN060 OVC090 M01/M06
A2989 RMK AO2 UPB52 SLP142 P0000 T10111056 $





000
SAUS41 KLWX 040059
MTRNAK
METAR KNAK 040054Z AUTO 17007KT 5SM -FZRA BR FEW011 OVC024 M01/M02
A3005 RMK AO2 SLP179 P0001 I1002 T10061017





000
SAUS41 KLWX 040059 COR
MTRDMH
METAR KDMH 040054Z AUTO 00/M02 A3004 RMK AO1 PRESFR SLP170 P0001
T00001022





000
SAUS41 KLWX 040059 COR
MTRDMH
METAR KDMH 040054Z AUTO 00/M02 A3004 RMK AO1 PRESFR SLP170 P0001
T00001022





000
SAUS41 KLWX 040059
MTRNAK
METAR KNAK 040054Z AUTO 17007KT 5SM -FZRA BR FEW011 OVC024 M01/M02
A3005 RMK AO2 SLP179 P0001 I1002 T10061017





000
SAUS41 KLWX 040058
MTRRSP
METAR KRSP 040054Z AUTO 8SM UP BKN030 BKN055 OVC090 M02/M06 RMK AO2
UPB45 SLPNO P0000 T10221061 $





000
SAUS41 KLWX 040058
MTRRSP
METAR KRSP 040054Z AUTO 8SM UP BKN030 BKN055 OVC090 M02/M06 RMK AO2
UPB45 SLPNO P0000 T10221061 $





000
SAUS41 KLWX 040030
MTRRSP
SPECI KRSP 040026Z AUTO 10SM SCT023 BKN055 OVC090 M03/M07 RMK AO2 $





000
SAUS41 KLWX 040030
MTRRSP
SPECI KRSP 040026Z AUTO 10SM SCT023 BKN055 OVC090 M03/M07 RMK AO2 $





000
SAUS41 KLWX 040010
MTRRYT
SPECI KRYT 040003Z AUTO 24005KT 10SM SCT026 OVC033 M01/M06 A2993 RMK
AO2 $





000
SAUS41 KLWX 040010
MTRRYT
SPECI KRYT 040003Z AUTO 24005KT 10SM SCT026 OVC033 M01/M06 A2993 RMK
AO2 $





000
SAUS41 KLWX 040000
MTRRYT
METAR KRYT 032353Z AUTO VRB05KT 10SM BKN026 OVC033 M01/M06 A2994 RMK
AO2 SLP156 60003 T10111061 11011 21022 57037 $





000
SAUS41 KLWX 040000
MTRRYT
METAR KRYT 032353Z AUTO VRB05KT 10SM BKN026 OVC033 M01/M06 A2994 RMK
AO2 SLP156 60003 T10111061 11011 21022 57037 $





000
SAUS41 KLWX 032359
MTRNAK
METAR KNAK 032354Z AUTO 16009KT 5SM -FZRA BR FEW010 OVC029 M01/M02
A3008 RMK AO2 UPE04FZRAB04 SLP187 P0002 60013 I1001 I6012 T10061022
11006 21011 56028





000
SAUS41 KLWX 032359 COR
MTRDMH
METAR KDMH 032354Z AUTO M01/M03 A3007 RMK AO1 SLP183 P0002 60012
T10061028 11006 21011 58036





000
SAUS41 KLWX 032359
MTRNAK
METAR KNAK 032354Z AUTO 16009KT 5SM -FZRA BR FEW010 OVC029 M01/M02
A3008 RMK AO2 UPE04FZRAB04 SLP187 P0002 60013 I1001 I6012 T10061022
11006 21011 56028





000
SAUS41 KLWX 032359 COR
MTRDMH
METAR KDMH 032354Z AUTO M01/M03 A3007 RMK AO1 SLP183 P0002 60012
T10061028 11006 21011 58036





000
SAUS41 KLWX 032358
MTRRSP
METAR KRSP 032354Z AUTO 10SM BKN016 OVC026 M03/M07 RMK AO2 FZRAE2259
SLPNO P0000 60002 T10331072 11033 21044 $





000
SAUS41 KLWX 032358
MTRRSP
METAR KRSP 032354Z AUTO 10SM BKN016 OVC026 M03/M07 RMK AO2 FZRAE2259
SLPNO P0000 60002 T10331072 11033 21044 $





000
SAUS41 KLWX 032354
MTRNAK
SPECI KNAK 032349Z AUTO 17009KT 4SM -FZRA BR OVC029 M01/M02 A3009
RMK AO2 UPE04FZRAB04 P0001 I1001





000
SAUS41 KLWX 032354
MTRNAK
SPECI KNAK 032349Z AUTO 17009KT 4SM -FZRA BR OVC029 M01/M02 A3009
RMK AO2 UPE04FZRAB04 P0001 I1001





000
SAUS41 KLWX 032315
MTRNAK
SPECI KNAK 032310Z AUTO 16009KT 6SM -FZRA BR OVC032 M01/M03 A3010
RMK AO2 UPE04FZRAB04 P0000 I1000 T10061028





000
SAUS41 KLWX 032315
MTRNAK
SPECI KNAK 032310Z AUTO 16009KT 6SM -FZRA BR OVC032 M01/M03 A3010
RMK AO2 UPE04FZRAB04 P0000 I1000 T10061028





000
SAUS41 KLWX 032309
MTRRSP
SPECI KRSP 032305Z AUTO 10SM OVC016 M04/M07 RMK AO2 FZRAE2259 P0000
$





000
SAUS41 KLWX 032300
MTRRYT
METAR KRYT 032253Z AUTO VRB03KT 8SM OVC026 M02/M06 A2997 RMK AO2
UPB2155E05B47E50FZRAB05E47 PRESFR SLP168 P0003 T10171061 $





000
SAUS41 KLWX 032300
MTRRYT
METAR KRYT 032253Z AUTO VRB03KT 8SM OVC026 M02/M06 A2997 RMK AO2
UPB2155E05B47E50FZRAB05E47 PRESFR SLP168 P0003 T10171061 $





000
SAUS41 KLWX 032259
MTRNAK
METAR KNAK 032254Z AUTO 16007KT 5SM UP BR OVC034 M01/M03 A3011 RMK
AO2 UPB37FZRAE37 SLP197 P0003 I1003 T10061028





000
SAUS41 KLWX 032259 COR
MTRDMH
METAR KDMH 032254Z AUTO M01/M03 A3011 RMK AO1 SLP195 P0003 T10061028





000
SAUS41 KLWX 032259
MTRNAK
METAR KNAK 032254Z AUTO 16007KT 5SM UP BR OVC034 M01/M03 A3011 RMK
AO2 UPB37FZRAE37 SLP197 P0003 I1003 T10061028





000
SAUS41 KLWX 032259 COR
MTRDMH
METAR KDMH 032254Z AUTO M01/M03 A3011 RMK AO1 SLP195 P0003 T10061028





000
SAUS41 KLWX 032258
MTRRSP
METAR KRSP 032254Z AUTO 10SM -FZRA OVC016 M04/M07 RMK AO2
UPE00FZRAB00 SLPNO P0001 T10391072 $





000
SAUS41 KLWX 032258
MTRRSP
METAR KRSP 032254Z AUTO 10SM -FZRA OVC016 M04/M07 RMK AO2
UPE00FZRAB00 SLPNO P0001 T10391072 $





000
SAUS41 KLWX 032248
MTRNAK
SPECI KNAK 032243Z AUTO VRB05KT 4SM UP BR OVC036 M01/M03 A3011 RMK
AO2 UPB37FZRAE37 PRESFR P0002 I1002 T10061028





000
SAUS41 KLWX 032239
MTRRYT
SPECI KRYT 032232Z AUTO VRB04KT 5SM -FZRA OVC026 M02/M06 A2999 RMK
AO2 UPB2155E05FZRAB05 P0002 $





000
SAUS41 KLWX 032239
MTRRYT
SPECI KRYT 032232Z AUTO VRB04KT 5SM -FZRA OVC026 M02/M06 A2999 RMK
AO2 UPB2155E05FZRAB05 P0002 $





000
SAUS41 KLWX 032229
MTRRYT
SPECI KRYT 032222Z AUTO 25006KT 2 1/2SM -FZRA OVC028 M02/M06 A3000
RMK AO2 UPB2155E05FZRAB05 P0002 $





000
SAUS41 KLWX 032227
MTRNAK
SPECI KNAK 032222Z AUTO 16008KT 3SM -FZRA BR OVC038 M01/M03 A3014
RMK AO2 P0002 I1002 T10061028





000
SAUS41 KLWX 032218
MTRRYT
SPECI KRYT 032211Z AUTO VRB06KT 4SM -FZRA OVC028 M02/M07 A3000 RMK
AO2 UPB2155E05FZRAB05 P0000 $





000
SAUS41 KLWX 032215
MTRNAK
SPECI KNAK 032210Z AUTO 16007G18KT 2 1/2SM -FZRA BR OVC038 M01/M03
A3015 RMK AO2 P0001 I1001 T10061028





000
SAUS41 KLWX 032210
MTRRSP
SPECI KRSP 032206Z AUTO 4SM -FZRA OVC018 M04/M08 RMK AO2
UPE00FZRAB00 P0000 $





000
SAUS41 KLWX 032209
MTRRYT
SPECI KRYT 032202Z AUTO 24005KT 6SM UP OVC028 M02/M08 A3001 RMK AO2
UPB2155 P0000 $





000
SAUS41 KLWX 032209
MTRRYT
SPECI KRYT 032202Z AUTO 24005KT 6SM UP OVC028 M02/M08 A3001 RMK AO2
UPB2155 P0000 $





000
SAUS41 KLWX 032200
MTRRYT
METAR KRYT 032153Z AUTO VRB03KT 10SM OVC030 M02/M08 A3002 RMK AO2
SLP184 T10171078 $





000
SAUS41 KLWX 032200
MTRRYT
METAR KRYT 032153Z AUTO VRB03KT 10SM OVC030 M02/M08 A3002 RMK AO2
SLP184 T10171078 $





000
SAUS41 KLWX 032159
MTRNAK
METAR KNAK 032154Z AUTO 17009KT 140V210 3SM -FZRA BR OVC039 M01/M03
A3016 RMK AO2 SLP216 P0004 I1003 T10061028





000
SAUS41 KLWX 032159 COR
MTRDMH
METAR KDMH 032154Z AUTO M01/M03 A3014 RMK AO1 SLP206 P0003 T10061033





000
SAUS41 KLWX 032158
MTRRSP
METAR KRSP 032154Z AUTO 9SM UP OVC020 M04/M09 RMK AO2 UPB54 SLPNO
P0000 T10391094 $





000
SAUS41 KLWX 032100
MTRRYT
METAR KRYT 032053Z AUTO VRB04KT 10SM OVC030 M02/M08 A3005 RMK AO2
SLP195 60000 T10171083 56055 $





000
SAUS41 KLWX 032059 COR
MTRDMH
METAR KDMH 032054Z AUTO M01/M04 A3018 RMK AO1 PRESFR SLP218 P0001
60004 T10061039 56044





000
SAUS41 KLWX 032059 COR
MTRNAK
METAR KNAK 032054Z AUTO 17009KT 4SM -FZRA OVC040 M01/M04 A3020 RMK
AO2 UPE1955B37E38FZRAB38 SLP227 P0001 60004 I1000 I3005 T10061039
56046





000
SAUS41 KLWX 032059 COR
MTRDMH
METAR KDMH 032054Z AUTO M01/M04 A3018 RMK AO1 PRESFR SLP218 P0001
60004 T10061039 56044





000
SAUS41 KLWX 032059 COR
MTRNAK
METAR KNAK 032054Z AUTO 17009KT 4SM -FZRA OVC040 M01/M04 A3020 RMK
AO2 UPE1955B37E38FZRAB38 SLP227 P0001 60004 I1000 I3005 T10061039
56046





000
SAUS41 KLWX 032058
MTRRSP
METAR KRSP 032054Z AUTO 9SM OVC022 M04/M09 RMK AO2 SLPNO 60001
T10441089 $





000
SAUS41 KLWX 032058
MTRRSP
METAR KRSP 032054Z AUTO 9SM OVC022 M04/M09 RMK AO2 SLPNO 60001
T10441089 $





000
SAUS41 KLWX 032049
MTRNAK
SPECI KNAK 032044Z AUTO 17008KT 4SM -FZRA OVC041 M01/M04 A3019 RMK
AO2 UPE1955B37E38FZRAB38 P0001 I1000 T10061039





000
SAUS41 KLWX 032049
MTRNAK
SPECI KNAK 032044Z AUTO 17008KT 4SM -FZRA OVC041 M01/M04 A3019 RMK
AO2 UPE1955B37E38FZRAB38 P0001 I1000 T10061039





000
SAUS41 KLWX 032000
MTRRYT
METAR KRYT 031953Z AUTO VRB03KT 10SM OVC034 M02/M09 A3010 RMK AO2
SLP212 T10171089 $





000
SAUS41 KLWX 031959 COR
MTRDMH
METAR KDMH 031954Z AUTO M01/M04 A3022 RMK AO1 SLP234 P0002 T10111044





000
SAUS41 KLWX 031959
MTRNAK
METAR KNAK 031954Z AUTO 16009KT 7SM UP OVC042 M01/M04 A3023 RMK AO2
UPB53FZRAE53 SLP238 P0002 I1003 T10061044





000
SAUS41 KLWX 031959 COR
MTRDMH
METAR KDMH 031954Z AUTO M01/M04 A3022 RMK AO1 SLP234 P0002 T10111044





000
SAUS41 KLWX 031959
MTRNAK
METAR KNAK 031954Z AUTO 16009KT 7SM UP OVC042 M01/M04 A3023 RMK AO2
UPB53FZRAE53 SLP238 P0002 I1003 T10061044





000
SAUS41 KLWX 031958
MTRRSP
METAR KRSP 031954Z AUTO 10SM OVC024 M04/M10 RMK AO2 UPE1855 SLPNO
T10441100 $





000
SAUS41 KLWX 031958
MTRRSP
METAR KRSP 031954Z AUTO 10SM OVC024 M04/M10 RMK AO2 UPE1855 SLPNO
T10441100 $





000
SAUS41 KLWX 031935
MTRNAK
SPECI KNAK 031930Z AUTO 17010KT 3SM -FZRA OVC041 M01/M04 A3025 RMK
AO2 P0002 I1003 T10111044





000
SAUS41 KLWX 031935
MTRNAK
SPECI KNAK 031930Z AUTO 17010KT 3SM -FZRA OVC041 M01/M04 A3025 RMK
AO2 P0002 I1003 T10111044





000
SAUS41 KLWX 031930
MTRNAK
SPECI KNAK 031925Z AUTO 17011KT 2 1/2SM FZRA OVC041 M01/M04 A3026
RMK AO2 P0002 I1002 T10111044





000
SAUS41 KLWX 031930
MTRNAK
SPECI KNAK 031925Z AUTO 17011KT 2 1/2SM FZRA OVC041 M01/M04 A3026
RMK AO2 P0002 I1002 T10111044





000
SAUS41 KLWX 031902 COR
MTRDMH
METAR KDMH 031854Z AUTO M01/M06 A3026 RMK AO1 SLP245 P0001 T10061056





000
SAUS41 KLWX 031900
MTRRYT
METAR KRYT 031853Z AUTO 00000KT 10SM OVC034 M02/M09 A3015 RMK AO2
UPB32E47 SLP230 P0000 T10221089 $





000
SAUS41 KLWX 031900 COR
MTRDMH
METAR KDMH 031854Z AUTO M01/M06 A3026 RMK AO1 SLP245 P0001 T10061056





000
SAUS41 KLWX 031900 COR
MTRDMH
METAR KDMH 031854Z AUTO M01/M06 A3026 RMK AO1 SLP245 P0001 T10061056





000
SAUS41 KLWX 031859
MTRNAK
METAR KNAK 031854Z AUTO 17007KT 6SM -FZRA OVC043 M01/M04 A3028 RMK
AO2 UPE13FZRAB13 SLP254 P0001 I1002 T10111044





000
SAUS41 KLWX 031859 COR
MTRDMH
METAR KDMH 031854Z AUTO M01/M06 A3026 RMK AO1 SLP245 P0001 T10061056





000
SAUS41 KLWX 031858
MTRRSP
METAR KRSP 031854Z AUTO 8SM UP OVC026 M04/M09 RMK AO2 UPB11 SLPNO
P0001 T10441094 $





000
SAUS41 KLWX 031858
MTRRSP
METAR KRSP 031854Z AUTO 8SM UP OVC026 M04/M09 RMK AO2 UPB11 SLPNO
P0001 T10441094 $





000
SAUS41 KLWX 031824
MTRNAK
SPECI KNAK 031819Z AUTO 17009KT 6SM -FZRA OVC046 M01/M06 A3031 RMK
AO2 UPE13FZRAB13 P0000 I1001 T10111056





000
SAUS41 KLWX 031800
MTRRYT
METAR KRYT 031753Z AUTO 00000KT 10SM OVC038 M02/M10 A3022 RMK AO2
UPB04E29 SLP251 P0000 60000 T10171100 11017 21044 58037 $





000
SAUS41 KLWX 031800 COR
MTRDMH
METAR KDMH 031754Z AUTO M01/M07 A3031 RMK AO1 SLP262 T10111072 11006
21172 58047





000
SAUS41 KLWX 031759 COR
MTRDMH
METAR KDMH 031754Z AUTO M01/M07 A3031 RMK AO1 SLP262 T10111072 11006
21172 58047





000
SAUS41 KLWX 031759
MTRNAK
METAR KNAK 031754Z AUTO 17008KT 7SM UP OVC049 M01/M07 A3033 RMK AO2
UPB48 SLP273 P0000 60000 T10061072 11006 21022 58037





000
SAUS41 KLWX 031758 COR
MTRDMH
METAR KDMH 031754Z AUTO M01/M07 A3031 RMK AO1 SLP262 T10111072 11006
21172 58047





000
SAUS41 KLWX 031758
MTRRSP
METAR KRSP 031754Z AUTO 10SM OVC028 M04/M11 RMK AO2 UPB1655E32 SLPNO
P0000 60000 T10441111 11039 21067 $





000
SAUS41 KLWX 031758 COR
MTRDMH
METAR KDMH 031754Z AUTO M01/M07 A3031 RMK AO1 SLP262 T10111072 11006
21172 58047





000
SAUS41 KLWX 031758
MTRRSP
METAR KRSP 031754Z AUTO 10SM OVC028 M04/M11 RMK AO2 UPB1655E32 SLPNO
P0000 60000 T10441111 11039 21067 $





000
SAUS41 KLWX 031743
MTRRSP
SPECI KRSP 031739Z AUTO 10SM OVC028 M04/M11 RMK AO2 UPB1655E32 P0000
$





000
SAUS41 KLWX 031743
MTRRSP
SPECI KRSP 031739Z AUTO 10SM OVC028 M04/M11 RMK AO2 UPB1655E32 P0000
$





    US Dept of Commerce
    National Oceanic and Atmospheric Administration
    National Weather Service
    1325 East West Highway
    Silver Spring, MD 20910
    Page Author: NWS Internet Services Team
Disclaimer
Information Quality
Credits
Glossary
Privacy Policy
Freedom of Information Act (FOIA)
About Us
Career Opportunities